Observation data for Welch on 03/23/2019      Previous  Date  Next       Current Mesonet Observations  Soil Data  Daily Summary Page  Observations in Plain Language
KWE2 230500Z 18009KT 13/11 A2999 RMK A01 T01310108  RH  086%=      5-min Rain = 0
KWE2 230501Z 18010KT 13/11 A2999 RMK A01 T01300109  RH  087%=      5-min Rain = 0
KWE2 230502Z 18008KT 13/11 A2999 RMK A01 T01290109  RH  087%=      5-min Rain = 0
KWE2 230503Z 18009KT 13/11 A2999 RMK A01 T01290109  RH  087%=      5-min Rain = 0
KWE2 230504Z 18008KT 13/11 A2999 RMK A01 T01280109  RH  088%=      5-min Rain = 0
KWE2 230505Z 18009KT 13/11 A2999 RMK A01 T01280109  RH  088%=      5-min Rain = 0
KWE2 230506Z 19009KT 13/11 A2999 RMK A01 T01280109  RH  088%=      5-min Rain = 0
KWE2 230507Z 19008KT 13/11 A2999 RMK A01 T01280109  RH  088%=      5-min Rain = 0
KWE2 230508Z 19008KT 13/11 A2999 RMK A01 T01280109  RH  088%=      5-min Rain = 0
KWE2 230509Z 19007KT 13/11 A2999 RMK A01 T01280109  RH  088%=      5-min Rain = 0
KWE2 230510Z 20007KT 13/11 A30 RMK A01 T01270108  RH  088%=      5-min Rain = 0
KWE2 230511Z 21006KT 13/11 A30 RMK A01 T01260107  RH  088%=      5-min Rain = 0
KWE2 230512Z 21007KT 13/11 A30 RMK A01 T01250107  RH  089%=      5-min Rain = 0
KWE2 230513Z 21006KT 13/11 A30 RMK A01 T01250107  RH  089%=      5-min Rain = 0
KWE2 230514Z 21006KT 12/11 A30 RMK A01 T01240107  RH  089%=      5-min Rain = 0
KWE2 230515Z 21006KT 12/11 A30 RMK A01 T01240107  RH  089%=      5-min Rain = 0
KWE2 230516Z 21006KT 12/11 A30 RMK A01 T01240107  RH  090%=      5-min Rain = 0
KWE2 230517Z 22006KT 12/11 A30 RMK A01 T01240107  RH  090%=      5-min Rain = 0
KWE2 230518Z 23006KT 12/11 A30 RMK A01 T01230107  RH  090%=      5-min Rain = 0
KWE2 230519Z 23005KT 12/11 A30 RMK A01 T01230106  RH  090%=      5-min Rain = 0
KWE2 230520Z 22004KT 12/11 A30 RMK A01 T01220107  RH  090%=      5-min Rain = 0
KWE2 230521Z 21004KT 12/11 A2999 RMK A01 T01220106  RH  090%=      5-min Rain = 0
KWE2 230522Z 21004KT 12/11 A2999 RMK A01 T01210106  RH  091%=      5-min Rain = 0
KWE2 230523Z 21004KT 12/11 A2999 RMK A01 T01220107  RH  091%=      5-min Rain = 0
KWE2 230524Z 20005KT 12/11 A2999 RMK A01 T01220107  RH  091%=      5-min Rain = 0
KWE2 230525Z 20005KT 12/11 A2999 RMK A01 T01220107  RH  090%=      5-min Rain = 0
KWE2 230526Z 20005KT 12/11 A2999 RMK A01 T01230108  RH  091%=      5-min Rain = 0
KWE2 230527Z 20005KT 12/11 A2999 RMK A01 T01230107  RH  090%=      5-min Rain = 0
KWE2 230528Z 20006KT 12/11 A2999 RMK A01 T01220106  RH  090%=      5-min Rain = 0
KWE2 230529Z 20005KT 12/11 A2999 RMK A01 T01220105  RH  089%=      5-min Rain = 0
KWE2 230530Z 20006KT 12/10 A2999 RMK A01 T01200104  RH  090%=      5-min Rain = 0
KWE2 230531Z 20006KT 12/11 A30 RMK A01 T01190105  RH  091%=      5-min Rain = 0
KWE2 230532Z 20006KT 12/10 A30 RMK A01 T01190104  RH  091%=      5-min Rain = 0
KWE2 230533Z 20007KT 12/11 A30 RMK A01 T01180105  RH  091%=      5-min Rain = 0
KWE2 230534Z 19008KT 12/11 A30 RMK A01 T01180106  RH  092%=      5-min Rain = 0
KWE2 230535Z 19008KT 12/11 A2999 RMK A01 T01200107  RH  092%=      5-min Rain = 0
KWE2 230536Z 19007KT 12/11 A2999 RMK A01 T01200106  RH  091%=      5-min Rain = 0
KWE2 230537Z 19008KT 12/11 A2999 RMK A01 T01200106  RH  091%=      5-min Rain = 0
KWE2 230538Z 18008KT 12/11 A2999 RMK A01 T01200106  RH  091%=      5-min Rain = 0
KWE2 230539Z 18009KT 12/11 A2999 RMK A01 T01200107  RH  091%=      5-min Rain = 0
KWE2 230540Z 19009KT 12/11 A2999 RMK A01 T01200107  RH  091%=      5-min Rain = 0
KWE2 230541Z 19010KT 12/11 A2999 RMK A01 T01210107  RH  091%=      5-min Rain = 0
KWE2 230542Z 19010KT 12/11 A2999 RMK A01 T01210107  RH  091%=      5-min Rain = 0
KWE2 230543Z 19009KT 12/11 A2999 RMK A01 T01210107  RH  091%=      5-min Rain = 0
KWE2 230544Z 19010KT 12/11 A2999 RMK A01 T01210107  RH  091%=      5-min Rain = 0
KWE2 230545Z 19011KT 12/11 A2999 RMK A01 T01200107  RH  092%=      5-min Rain = 0
KWE2 230546Z 19011KT 12/11 A2999 RMK A01 T01210108  RH  091%=      5-min Rain = 0
KWE2 230547Z 20010KT 12/11 A2999 RMK A01 T01220109  RH  092%=      5-min Rain = 0
KWE2 230548Z 20009KT 12/11 A2999 RMK A01 T01230109  RH  091%=      5-min Rain = 0
KWE2 230549Z 20009KT 12/11 A2999 RMK A01 T01240109  RH  090%=      5-min Rain = 0
KWE2 230550Z 19009KT 12/11 A2999 RMK A01 T01230109  RH  091%=      5-min Rain = 0
KWE2 230551Z 19008KT 12/11 A2999 RMK A01 T01230108  RH  090%=      5-min Rain = 0
KWE2 230552Z 19008KT 12/11 A2999 RMK A01 T01220107  RH  091%=      5-min Rain = 0
KWE2 230553Z 19007KT 12/11 A2999 RMK A01 T01210107  RH  091%=      5-min Rain = 0
KWE2 230554Z 20008KT 12/11 A2999 RMK A01 T01200106  RH  091%=      5-min Rain = 0
KWE2 230555Z 20007KT 12/11 A2999 RMK A01 T01190105  RH  091%=      5-min Rain = 0
KWE2 230556Z 21007KT 12/11 A2999 RMK A01 T01180105  RH  092%=      5-min Rain = 0
KWE2 230557Z 21008KT 12/11 A2999 RMK A01 T01170105  RH  092%=      5-min Rain = 0
KWE2 230558Z 20008KT 12/10 A2999 RMK A01 T01160104  RH  092%=      5-min Rain = 0
KWE2 230559Z 20008KT 11/10 A30 RMK A01 T01140103  RH  093%=      5-min Rain = 0
KWE2 230600Z 20008KT 11/10 A30 RMK A01 T01140104  RH  094%=      5-min Rain = 0
KWE2 230601Z 20009KT 11/10 A30 RMK A01 T01130104  RH  094%=      5-min Rain = 0
KWE2 230602Z 20009KT 11/10 A30 RMK A01 T01130104  RH  094%=      5-min Rain = 0
KWE2 230603Z 20009KT 11/11 A30 RMK A01 T01130105  RH  094%=      5-min Rain = 0
KWE2 230604Z 20010KT 11/10 A30 RMK A01 T01130104  RH  094%=      5-min Rain = 0
KWE2 230605Z 20011KT 11/10 A30 RMK A01 T01130104  RH  094%=      5-min Rain = 0
KWE2 230606Z 19011KT 11/11 A2999 RMK A01 T01140105  RH  094%=      5-min Rain = 0
KWE2 230607Z 19011KT 12/11 A2999 RMK A01 T01150106  RH  094%=      5-min Rain = 0
KWE2 230608Z 19011KT 12/11 A2999 RMK A01 T01150106  RH  094%=      5-min Rain = 0
KWE2 230609Z 20011KT 12/11 A2999 RMK A01 T01160107  RH  094%=      5-min Rain = 0
KWE2 230610Z 19011KT 12/11 A2999 RMK A01 T01160107  RH  094%=      5-min Rain = 0
KWE2 230611Z 20010KT 12/11 A2999 RMK A01 T01160107  RH  094%=      5-min Rain = 0
KWE2 230612Z 20010KT 12/11 A2999 RMK A01 T01160107  RH  094%=      5-min Rain = 0
KWE2 230613Z 20010KT 12/11 A2999 RMK A01 T01170107  RH  094%=      5-min Rain = 0
KWE2 230614Z 20010KT 12/11 A2999 RMK A01 T01170107  RH  094%=      5-min Rain = 0
KWE2 230615Z 20010KT 12/11 A2999 RMK A01 T01170108  RH  094%=      5-min Rain = 0
KWE2 230616Z 20010KT 12/11 A2999 RMK A01 T01180107  RH  093%=      5-min Rain = 0
KWE2 230617Z 20009KT 12/11 A2999 RMK A01 T01170107  RH  093%=      5-min Rain = 0
KWE2 230618Z 20009KT 12/11 A2999 RMK A01 T01160106  RH  094%=      5-min Rain = 0
KWE2 230619Z 20009KT 12/11 A2999 RMK A01 T01160107  RH  094%=      5-min Rain = 0
KWE2 230620Z 20009KT 12/11 A2999 RMK A01 T01160107  RH  094%=      5-min Rain = 0
KWE2 230621Z 20008KT 12/11 A2999 RMK A01 T01150107  RH  094%=      5-min Rain = 0
KWE2 230622Z 20008KT 12/11 A2999 RMK A01 T01150106  RH  094%=      5-min Rain = 0
KWE2 230623Z 21008KT 12/11 A2999 RMK A01 T01150106  RH  094%=      5-min Rain = 0
KWE2 230624Z 20008KT 11/11 A2999 RMK A01 T01140106  RH  094%=      5-min Rain = 0
KWE2 230625Z 20008KT 11/11 A2999 RMK A01 T01130105  RH  095%=      5-min Rain = 0
KWE2 230626Z 20008KT 11/11 A2999 RMK A01 T01130106  RH  095%=      5-min Rain = 0
KWE2 230627Z 20008KT 11/11 A2999 RMK A01 T01130106  RH  096%=      5-min Rain = 0
KWE2 230628Z 20008KT 11/11 A2999 RMK A01 T01130106  RH  096%=      5-min Rain = 0
KWE2 230629Z 19009KT 11/11 A2999 RMK A01 T01130107  RH  096%=      5-min Rain = 0
KWE2 230630Z 20009KT 11/11 A2999 RMK A01 T01140107  RH  096%=      5-min Rain = 0
KWE2 230631Z 20009KT 11/11 A2999 RMK A01 T01140107  RH  096%=      5-min Rain = 0
KWE2 230632Z 20010KT 11/11 A2999 RMK A01 T01140107  RH  096%=      5-min Rain = 0
KWE2 230633Z 20010KT 11/11 A2999 RMK A01 T01140108  RH  096%=      5-min Rain = 0
KWE2 230634Z 19010KT 12/11 A2999 RMK A01 T01150108  RH  096%=      5-min Rain = 0
KWE2 230635Z 19010KT 12/11 A2999 RMK A01 T01150108  RH  095%=      5-min Rain = 0
KWE2 230636Z 19010KT 12/11 A2999 RMK A01 T01150109  RH  096%=      5-min Rain = 0
KWE2 230637Z 20010KT 12/11 A2999 RMK A01 T01150109  RH  096%=      5-min Rain = 0
KWE2 230638Z 20010KT 12/11 A2999 RMK A01 T01150108  RH  096%=      5-min Rain = 0
KWE2 230639Z 19009KT 12/11 A2999 RMK A01 T01150109  RH  096%=      5-min Rain = 0
KWE2 230640Z 19009KT 12/11 A2999 RMK A01 T01150108  RH  096%=      5-min Rain = 0
KWE2 230641Z 20009KT 12/11 A2999 RMK A01 T01150108  RH  095%=      5-min Rain = 0
KWE2 230642Z 20009KT 11/11 A2999 RMK A01 T01140108  RH  096%=      5-min Rain = 0
KWE2 230643Z 19009KT 11/11 A2999 RMK A01 T01140108  RH  096%=      5-min Rain = 0
KWE2 230644Z 20009KT 11/11 A2999 RMK A01 T01140108  RH  096%=      5-min Rain = 0
KWE2 230645Z 19009KT 11/11 A2999 RMK A01 T01130107  RH  096%=      5-min Rain = 0
KWE2 230646Z 19009KT 11/11 A2999 RMK A01 T01120106  RH  096%=      5-min Rain = 0
KWE2 230647Z 19009KT 11/11 A2999 RMK A01 T01120106  RH  096%=      5-min Rain = 0
KWE2 230648Z 19010KT 11/11 A2999 RMK A01 T01110106  RH  096%=      5-min Rain = 0
KWE2 230649Z 19010KT 11/11 A2999 RMK A01 T01110105  RH  097%=      5-min Rain = 0
KWE2 230650Z 19010KT 11/11 A2999 RMK A01 T01110106  RH  097%=      5-min Rain = 0
KWE2 230651Z 20009KT 11/11 A2999 RMK A01 T01110106  RH  097%=      5-min Rain = 0
KWE2 230652Z 20009KT 11/11 A2999 RMK A01 T01110106  RH  097%=      5-min Rain = 0
KWE2 230653Z 19009KT 11/11 A2999 RMK A01 T01100106  RH  097%=      5-min Rain = 0
KWE2 230654Z 20009KT 11/11 A2999 RMK A01 T01100106  RH  097%=      5-min Rain = 0
KWE2 230655Z 20008KT 11/11 A2999 RMK A01 T01100106  RH  097%=      5-min Rain = 0
KWE2 230656Z 20009KT 11/11 A2999 RMK A01 T01100106  RH  097%=      5-min Rain = 0
KWE2 230657Z 20008KT 11/11 A2999 RMK A01 T01110106  RH  097%=      5-min Rain = 0
KWE2 230658Z 20008KT 11/11 A2999 RMK A01 T01110106  RH  097%=      5-min Rain = 0
KWE2 230659Z 20008KT 11/11 A2999 RMK A01 T01100106  RH  097%=      5-min Rain = 0
KWE2 230700Z 20008KT 11/11 A2999 RMK A01 T01100105  RH  097%=      5-min Rain = 0
KWE2 230701Z 20008KT 11/11 A2999 RMK A01 T01100106  RH  097%=      5-min Rain = 0
KWE2 230702Z 20008KT 11/11 A2999 RMK A01 T01090105  RH  097%=      5-min Rain = 0
KWE2 230703Z 20008KT 11/10 A2999 RMK A01 T01090104  RH  097%=      5-min Rain = 0
KWE2 230704Z 20008KT 11/10 A2999 RMK A01 T01080104  RH  097%=      5-min Rain = 0
KWE2 230705Z 20008KT 11/10 A2999 RMK A01 T01080104  RH  098%=      5-min Rain = 0
KWE2 230706Z 20009KT 11/10 A2999 RMK A01 T01070104  RH  098%=      5-min Rain = 0
KWE2 230707Z 20009KT 11/11 A2999 RMK A01 T01080105  RH  098%=      5-min Rain = 0
KWE2 230708Z 20009KT 11/11 A2999 RMK A01 T01080105  RH  098%=      5-min Rain = 0
KWE2 230709Z 20009KT 11/11 A2999 RMK A01 T01070105  RH  098%=      5-min Rain = 0
KWE2 230710Z 20009KT 11/11 A2999 RMK A01 T01070105  RH  098%=      5-min Rain = 0
KWE2 230711Z 20009KT 11/11 A2999 RMK A01 T01070105  RH  099%=      5-min Rain = 0
KWE2 230712Z 19009KT 11/11 A2999 RMK A01 T01070105  RH  099%=      5-min Rain = 0
KWE2 230713Z 20008KT 11/11 A2999 RMK A01 T01070105  RH  099%=      5-min Rain = 0
KWE2 230714Z 20009KT 11/11 A2999 RMK A01 T01070105  RH  099%=      5-min Rain = 0
KWE2 230715Z 20009KT 11/11 A2999 RMK A01 T01070105  RH  099%=      5-min Rain = 0
KWE2 230716Z 20009KT 11/11 A2999 RMK A01 T01070106  RH  099%=      5-min Rain = 0
KWE2 230717Z 20009KT 11/11 A2999 RMK A01 T01080106  RH  099%=      5-min Rain = 0
KWE2 230718Z 20009KT 11/11 A2999 RMK A01 T01080106  RH  099%=      5-min Rain = 0
KWE2 230719Z 20009KT 11/11 A2999 RMK A01 T01090107  RH  099%=      5-min Rain = 0
KWE2 230720Z 20009KT 11/11 A2999 RMK A01 T01090107  RH  099%=      5-min Rain = 0
KWE2 230721Z 20009KT 11/11 A2999 RMK A01 T01090107  RH  099%=      5-min Rain = 0
KWE2 230722Z 20009KT 11/11 A2999 RMK A01 T01090107  RH  099%=      5-min Rain = 0
KWE2 230723Z 20010KT 11/11 A2999 RMK A01 T01090107  RH  099%=      5-min Rain = 0
KWE2 230724Z 20010KT 11/11 A2999 RMK A01 T01090107  RH  099%=      5-min Rain = 0
KWE2 230725Z 20009KT 11/11 A2999 RMK A01 T01100107  RH  099%=      5-min Rain = 0
KWE2 230726Z 20010KT 11/11 A2999 RMK A01 T01100107  RH  098%=      5-min Rain = 0
KWE2 230727Z 20010KT 11/11 A2999 RMK A01 T01100107  RH  098%=      5-min Rain = 0
KWE2 230728Z 20010KT 11/11 A2999 RMK A01 T01100108  RH  098%=      5-min Rain = 0
KWE2 230729Z 20010KT 11/11 A2999 RMK A01 T01110108  RH  098%=      5-min Rain = 0
KWE2 230730Z 20010KT 11/11 A2999 RMK A01 T01110108  RH  098%=      5-min Rain = 0
KWE2 230731Z 20010KT 11/11 A2999 RMK A01 T01110108  RH  098%=      5-min Rain = 0
KWE2 230732Z 20010KT 11/11 A2999 RMK A01 T01110108  RH  098%=      5-min Rain = 0
KWE2 230733Z 20011KT 11/11 A2999 RMK A01 T01120109  RH  098%=      5-min Rain = 0
KWE2 230734Z 20011KT 11/11 A2999 RMK A01 T01120109  RH  098%=      5-min Rain = 0
KWE2 230735Z 20010KT 11/11 A2999 RMK A01 T01120109  RH  098%=      5-min Rain = 0
KWE2 230736Z 20010KT 11/11 A2999 RMK A01 T01120109  RH  098%=      5-min Rain = 0
KWE2 230737Z 20010KT 11/11 A2999 RMK A01 T01130109  RH  098%=      5-min Rain = 0
KWE2 230738Z 20009KT 11/11 A2999 RMK A01 T01120109  RH  098%=      5-min Rain = 0
KWE2 230739Z 20010KT 11/11 A2999 RMK A01 T01120109  RH  098%=      5-min Rain = 0
KWE2 230740Z 20010KT 11/11 A2999 RMK A01 T01130109  RH  098%=      5-min Rain = 0
KWE2 230741Z 20010KT 11/11 A2999 RMK A01 T01130110  RH  098%=      5-min Rain = 0
KWE2 230742Z 21010KT 11/11 A2999 RMK A01 T01120109  RH  098%=      5-min Rain = 0
KWE2 230743Z 21010KT 11/11 A2999 RMK A01 T01130110  RH  098%=      5-min Rain = 0
KWE2 230744Z 21009KT 11/11 A2999 RMK A01 T01120109  RH  098%=      5-min Rain = 0
KWE2 230745Z 21009KT 11/11 A2999 RMK A01 T01130109  RH  098%=      5-min Rain = 0
KWE2 230746Z 21010KT 11/11 A2999 RMK A01 T01120110  RH  098%=      5-min Rain = 0
KWE2 230747Z 21009KT 11/11 A2999 RMK A01 T01120109  RH  098%=      5-min Rain = 0
KWE2 230748Z 21010KT 11/11 A2999 RMK A01 T01120109  RH  098%=      5-min Rain = 0
KWE2 230749Z 21010KT 11/11 A2999 RMK A01 T01120109  RH  098%=      5-min Rain = 0
KWE2 230750Z 20010KT 11/11 A2999 RMK A01 T01120110  RH  098%=      5-min Rain = 0
KWE2 230751Z 20010KT 11/11 A2999 RMK A01 T01120110  RH  098%=      5-min Rain = 0
KWE2 230752Z 20010KT 11/11 A2999 RMK A01 T01120109  RH  098%=      5-min Rain = 0
KWE2 230753Z 20010KT 11/11 A2999 RMK A01 T01120109  RH  098%=      5-min Rain = 0
KWE2 230754Z 21010KT 11/11 A2999 RMK A01 T01120109  RH  098%=      5-min Rain = 0
KWE2 230755Z 20009KT 11/11 A2999 RMK A01 T01110108  RH  098%=      5-min Rain = 0
KWE2 230756Z 20010KT 11/11 A2999 RMK A01 T01100108  RH  098%=      5-min Rain = 0
KWE2 230757Z 20009KT 11/11 A2999 RMK A01 T01110109  RH  099%=      5-min Rain = 0
KWE2 230758Z 20009KT 11/11 A2999 RMK A01 T01110108  RH  098%=      5-min Rain = 0
KWE2 230759Z 21009KT 11/11 A2999 RMK A01 T01100108  RH  098%=      5-min Rain = 0
KWE2 230800Z 21010KT 11/11 A2999 RMK A01 T01100108  RH  099%=      5-min Rain = 0
KWE2 230801Z 20009KT 11/11 A2999 RMK A01 T01100108  RH  099%=      5-min Rain = 0
KWE2 230802Z 21009KT 11/11 A2999 RMK A01 T01100107  RH  098%=      5-min Rain = 0
KWE2 230803Z 21009KT 11/11 A2999 RMK A01 T01090107  RH  099%=      5-min Rain = 0
KWE2 230804Z 21009KT 11/11 A2999 RMK A01 T01090107  RH  099%=      5-min Rain = 0
KWE2 230805Z 21009KT 11/11 A2999 RMK A01 T01090107  RH  099%=      5-min Rain = 0
KWE2 230806Z 21009KT 11/11 A2999 RMK A01 T01080107  RH  099%=      5-min Rain = 0
KWE2 230807Z 21009KT 11/11 A2999 RMK A01 T01080107  RH  099%=      5-min Rain = 0
KWE2 230808Z 21008KT 11/11 A2999 RMK A01 T01080106  RH  099%=      5-min Rain = 0
KWE2 230809Z 21008KT 11/11 A2999 RMK A01 T01070106  RH  099%=      5-min Rain = 0
KWE2 230810Z 21009KT 11/11 A2999 RMK A01 T01070106  RH  099%=      5-min Rain = 0
KWE2 230811Z 20009KT 11/11 A2999 RMK A01 T01070106  RH  099%=      5-min Rain = 0
KWE2 230812Z 20010KT 11/11 A2999 RMK A01 T01060105  RH  099%=      5-min Rain = 0
KWE2 230813Z 20010KT 11/11 A2999 RMK A01 T01060106  RH  100%=      5-min Rain = 0
KWE2 230814Z 20011KT 11/11 A2999 RMK A01 T01070106  RH  100%=      5-min Rain = 0
KWE2 230815Z 20010KT 11/11 A2999 RMK A01 T01070106  RH  100%=      5-min Rain = 0
KWE2 230816Z 20010KT 11/11 A2999 RMK A01 T01060106  RH  100%=      5-min Rain = 0
KWE2 230817Z 20010KT 11/11 A2999 RMK A01 T01060106  RH  100%=      5-min Rain = 0
KWE2 230818Z 21011KT 11/11 A2999 RMK A01 T01070107  RH  100%=      5-min Rain = 0
KWE2 230819Z 21010KT 11/11 A2999 RMK A01 T01080107  RH  100%=      5-min Rain = 0
KWE2 230820Z 22010KT 11/11 A2999 RMK A01 T01080107  RH  100%=      5-min Rain = 0
KWE2 230821Z 21010KT 11/11 A2999 RMK A01 T01080107  RH  099%=      5-min Rain = 0
KWE2 230822Z 21010KT 11/11 A2999 RMK A01 T01080108  RH  100%=      5-min Rain = 0
KWE2 230823Z 21009KT 11/11 A2999 RMK A01 T01090109  RH  100%=      5-min Rain = 0
KWE2 230824Z 21009KT 11/11 A2999 RMK A01 T01090108  RH  099%=      5-min Rain = 0
KWE2 230825Z 21009KT 11/11 A2999 RMK A01 T01090108  RH  099%=      5-min Rain = 0
KWE2 230826Z 21008KT 11/11 A2999 RMK A01 T01090108  RH  099%=      5-min Rain = 0
KWE2 230827Z 21008KT 11/11 A2999 RMK A01 T01090107  RH  099%=      5-min Rain = 0
KWE2 230828Z 21008KT 11/11 A2999 RMK A01 T01090108  RH  099%=      5-min Rain = 0
KWE2 230829Z 21008KT 11/11 A2999 RMK A01 T01090108  RH  099%=      5-min Rain = 0
KWE2 230830Z 21008KT 11/11 A2999 RMK A01 T01090108  RH  100%=      5-min Rain = 0
KWE2 230831Z 21009KT 11/11 A2999 RMK A01 T01090108  RH  099%=      5-min Rain = 0
KWE2 230832Z 21008KT 11/11 A2999 RMK A01 T01080107  RH  099%=      5-min Rain = 0
KWE2 230833Z 22008KT 11/11 A2999 RMK A01 T01080106  RH  099%=      5-min Rain = 0
KWE2 230834Z 23007KT 11/11 A2999 RMK A01 T01080107  RH  100%=      5-min Rain = 0
KWE2 230835Z 23007KT 11/11 A2999 RMK A01 T01070106  RH  100%=      5-min Rain = 0
KWE2 230836Z 23006KT 11/11 A2999 RMK A01 T01070107  RH  100%=      5-min Rain = 0
KWE2 230837Z 23006KT 11/11 A2999 RMK A01 T01070106  RH  100%=      5-min Rain = 0
KWE2 230838Z 23006KT 11/11 A2999 RMK A01 T01070106  RH  100%=      5-min Rain = 0
KWE2 230839Z 23006KT 11/11 A2999 RMK A01 T01060106  RH  100%=      5-min Rain = 0
KWE2 230840Z 23006KT 11/11 A2999 RMK A01 T01060106  RH  100%=      5-min Rain = 0
KWE2 230841Z 23006KT 11/11 A2999 RMK A01 T01060106  RH  100%=      5-min Rain = 0
KWE2 230842Z 23006KT 11/11 A2999 RMK A01 T01060106  RH  100%=      5-min Rain = 0
KWE2 230843Z 23006KT 11/11 A2999 RMK A01 T01060106  RH  100%=      5-min Rain = 0
KWE2 230844Z 23006KT 11/11 A2999 RMK A01 T01050106  RH  100%=      5-min Rain = 0
KWE2 230845Z 24007KT 11/11 A2999 RMK A01 T01060106  RH  100%=      5-min Rain = 0
KWE2 230846Z 24006KT 11/11 A2999 RMK A01 T01070107  RH  100%=      5-min Rain = 0
KWE2 230847Z 24006KT 11/11 A2999 RMK A01 T01070107  RH  100%=      5-min Rain = 0
KWE2 230848Z 24005KT 11/11 A2999 RMK A01 T01070107  RH  100%=      5-min Rain = 0
KWE2 230849Z 25005KT 11/11 A2999 RMK A01 T01060107  RH  100%=      5-min Rain = 0
KWE2 230850Z 24004KT 11/11 A2999 RMK A01 T01060106  RH  100%=      5-min Rain = 0
KWE2 230851Z 25004KT 11/11 A2999 RMK A01 T01050105  RH  100%=      5-min Rain = 0
KWE2 230852Z 26005KT 11/11 A2999 RMK A01 T01050105  RH  100%=      5-min Rain = 0
KWE2 230853Z 26005KT 11/11 A2999 RMK A01 T01050105  RH  100%=      5-min Rain = 0
KWE2 230854Z 25005KT 10/10 A2999 RMK A01 T01040104  RH  100%=      5-min Rain = 0
KWE2 230855Z 25004KT 10/10 A2999 RMK A01 T01040104  RH  100%=      5-min Rain = 0
KWE2 230856Z 26004KT 10/10 A2999 RMK A01 T01030103  RH  100%=      5-min Rain = 0
KWE2 230857Z 26005KT 10/10 A2999 RMK A01 T01030103  RH  100%=      5-min Rain = 0
KWE2 230858Z 25004KT 10/10 A2999 RMK A01 T01030103  RH  100%=      5-min Rain = 0
KWE2 230859Z 25005KT 10/10 A2999 RMK A01 T01030103  RH  100%=      5-min Rain = 0
KWE2 230900Z 25004KT 10/10 A2999 RMK A01 T01030103  RH  100%=      5-min Rain = 0
KWE2 230901Z 26005KT 10/10 A2999 RMK A01 T01030103  RH  100%=      5-min Rain = 0
KWE2 230902Z 27005KT 10/10 A2999 RMK A01 T01030103  RH  100%=      5-min Rain = 0
KWE2 230903Z 28005KT 10/10 A2999 RMK A01 T01030103  RH  100%=      5-min Rain = 0
KWE2 230904Z 28006KT 10/10 A2999 RMK A01 T01030104  RH  100%=      5-min Rain = 0
KWE2 230905Z 29006KT 10/10 A2999 RMK A01 T01030103  RH  100%=      5-min Rain = 0
KWE2 230906Z 29005KT 10/10 A2999 RMK A01 T01030103  RH  100%=      5-min Rain = 0
KWE2 230907Z 28005KT 10/10 A2999 RMK A01 T01030103  RH  100%=      5-min Rain = 0
KWE2 230908Z 28004KT 10/10 A2999 RMK A01 T01030103  RH  100%=      5-min Rain = 0
KWE2 230909Z 28004KT 10/10 A2999 RMK A01 T01030103  RH  100%=      5-min Rain = 0
KWE2 230910Z 28004KT 10/10 A2999 RMK A01 T01030103  RH  100%=      5-min Rain = 0
KWE2 230911Z 28005KT 10/10 A2999 RMK A01 T01030103  RH  100%=      5-min Rain = 0
KWE2 230912Z 30005KT 10/10 A2999 RMK A01 T01030103  RH  100%=      5-min Rain = 0
KWE2 230913Z 31006KT 10/10 A2999 RMK A01 T01030103  RH  100%=      5-min Rain = 0
KWE2 230914Z 31006KT 10/10 A2999 RMK A01 T01020102  RH  100%=      5-min Rain = 0
KWE2 230915Z 31006KT 10/10 A2999 RMK A01 T01020102  RH  100%=      5-min Rain = 0
KWE2 230916Z 30006KT 10/10 A2999 RMK A01 T01020102  RH  100%=      5-min Rain = 0
KWE2 230917Z 30007KT 10/10 A2999 RMK A01 T01020102  RH  100%=      5-min Rain = 0
KWE2 230918Z 30006KT 10/10 A2999 RMK A01 T01030103  RH  100%=      5-min Rain = 0
KWE2 230919Z 30006KT 10/10 A2999 RMK A01 T01030103  RH  100%=      5-min Rain = 0
KWE2 230920Z 30007KT 10/10 A2999 RMK A01 T01040104  RH  100%=      5-min Rain = 0
KWE2 230921Z 30006KT 10/10 A2999 RMK A01 T01040104  RH  100%=      5-min Rain = 0
KWE2 230922Z 30006KT 10/10 A2999 RMK A01 T01040104  RH  100%=      5-min Rain = 0
KWE2 230923Z 30006KT 10/10 A2999 RMK A01 T01040104  RH  100%=      5-min Rain = 0
KWE2 230924Z 30006KT 10/10 A2999 RMK A01 T01040104  RH  100%=      5-min Rain = 0
KWE2 230925Z 30005KT 10/10 A2999 RMK A01 T01040104  RH  100%=      5-min Rain = 0
KWE2 230926Z 30006KT 10/10 A2999 RMK A01 T01040104  RH  100%=      5-min Rain = 0
KWE2 230927Z 29006KT 10/10 A2999 RMK A01 T01040104  RH  100%=      5-min Rain = 0
KWE2 230928Z 30007KT 10/10 A2999 RMK A01 T01040104  RH  100%=      5-min Rain = 0
KWE2 230929Z 30007KT 10/10 A2999 RMK A01 T01040104  RH  100%=      5-min Rain = 0
KWE2 230930Z 30008KT 10/10 A2999 RMK A01 T01040104  RH  100%=      5-min Rain = 0
KWE2 230931Z 30008KT 10/11 A2999 RMK A01 T01040105  RH  100%=      5-min Rain = 0
KWE2 230932Z 30008KT 11/11 A30 RMK A01 T01050105  RH  100%=      5-min Rain = 0
KWE2 230933Z 29008KT 11/11 A30 RMK A01 T01050105  RH  100%=      5-min Rain = 0
KWE2 230934Z 29006KT 11/11 A2999 RMK A01 T01060106  RH  100%=      5-min Rain = 0
KWE2 230935Z 29007KT 11/11 A2999 RMK A01 T01060106  RH  100%=      5-min Rain = 0
KWE2 230936Z 29007KT 11/11 A2999 RMK A01 T01060106  RH  100%=      5-min Rain = 0
KWE2 230937Z 29006KT 11/11 A2999 RMK A01 T01060106  RH  100%=      5-min Rain = 0
KWE2 230938Z 29006KT 11/11 A2999 RMK A01 T01060106  RH  100%=      5-min Rain = 0
KWE2 230939Z 29006KT 11/11 A2999 RMK A01 T01060106  RH  100%=      5-min Rain = 0
KWE2 230940Z 29006KT 11/11 A2999 RMK A01 T01060106  RH  100%=      5-min Rain = 0
KWE2 230941Z 29008KT 11/11 A2999 RMK A01 T01070107  RH  100%=      5-min Rain = 0
KWE2 230942Z 28007KT 11/11 A2999 RMK A01 T01070107  RH  100%=      5-min Rain = 0
KWE2 230943Z 28008KT 11/11 A2999 RMK A01 T01070107  RH  100%=      5-min Rain = 0
KWE2 230944Z 28007KT 11/11 A2999 RMK A01 T01080108  RH  100%=      5-min Rain = 0
KWE2 230945Z 28006KT 11/11 A2999 RMK A01 T01090109  RH  100%=      5-min Rain = 0
KWE2 230946Z 28007KT 11/11 A2999 RMK A01 T01090109  RH  100%=      5-min Rain = 0
KWE2 230947Z 27007KT 11/11 A2999 RMK A01 T01090110  RH  100%=      5-min Rain = 0
KWE2 230948Z 27007KT 11/11 A2999 RMK A01 T01100110  RH  100%=      5-min Rain = 0
KWE2 230949Z 27008KT 11/11 A2999 RMK A01 T01100111  RH  100%=      5-min Rain = 0
KWE2 230950Z 27006KT 11/11 A2999 RMK A01 T01100110  RH  100%=      5-min Rain = 0
KWE2 230951Z 28008KT 11/11 A2999 RMK A01 T01110111  RH  100%=      5-min Rain = 0
KWE2 230952Z 28008KT 11/11 A2999 RMK A01 T01110111  RH  100%=      5-min Rain = 0
KWE2 230953Z 28008KT 11/11 A2999 RMK A01 T01110112  RH  100%=      5-min Rain = 0
KWE2 230954Z 27008KT 11/11 A2999 RMK A01 T01120112  RH  100%=      5-min Rain = 0
KWE2 230955Z 27009KT 11/11 A2999 RMK A01 T01120112  RH  100%=      5-min Rain = 0
KWE2 230956Z 28010KT 11/11 A2999 RMK A01 T01130113  RH  100%=      5-min Rain = 0
KWE2 230957Z 27009KT 11/11 A2999 RMK A01 T01140114  RH  100%=      5-min Rain = 0
KWE2 230958Z 27010KT 11/11 A2999 RMK A01 T01140114  RH  100%=      5-min Rain = 0
KWE2 230959Z 27010KT 11/11 A2999 RMK A01 T01140114  RH  100%=      5-min Rain = 0
KWE2 231000Z 27010KT 12/12 A2999 RMK A01 T01150115  RH  100%=      5-min Rain = 0
KWE2 231001Z 27009KT 12/12 A2999 RMK A01 T01150115  RH  100%=      5-min Rain = 0
KWE2 231002Z 27010KT 12/12 A2999 RMK A01 T01150115  RH  100%=      5-min Rain = 0
KWE2 231003Z 27008KT 12/12 A2999 RMK A01 T01150116  RH  100%=      5-min Rain = 0
KWE2 231004Z 26010KT 12/12 A2999 RMK A01 T01160116  RH  100%=      5-min Rain = 0
KWE2 231005Z 26011KT 12/12 A2999 RMK A01 T01160116  RH  100%=      5-min Rain = 0
KWE2 231006Z 26011KT 12/12 A2999 RMK A01 T01160116  RH  100%=      5-min Rain = 0
KWE2 231007Z 26012KT 12/12 A2999 RMK A01 T01170117  RH  100%=      5-min Rain = 0
KWE2 231008Z 26011KT 12/12 A2999 RMK A01 T01170117  RH  100%=      5-min Rain = 0
KWE2 231009Z 26012G17KT 12/12 A2999 RMK A01 T01170117  RH  100%=      5-min Rain = 0
KWE2 231010Z 26013KT 12/12 A2999 RMK A01 T01170117  RH  100%=      5-min Rain = 0
KWE2 231011Z 26011KT 12/12 A2999 RMK A01 T01170117  RH  100%=      5-min Rain = 0
KWE2 231012Z 25012KT 12/12 A2999 RMK A01 T01170117  RH  100%=      5-min Rain = 0
KWE2 231013Z 25013KT 12/12 A2999 RMK A01 T01170117  RH  100%=      5-min Rain = 0
KWE2 231014Z 25013KT 12/12 A2999 RMK A01 T01170117  RH  100%=      5-min Rain = 0
KWE2 231015Z 26012KT 12/12 A2999 RMK A01 T01170117  RH  100%=      5-min Rain = 0
KWE2 231016Z 25013KT 12/12 A2999 RMK A01 T01170117  RH  100%=      5-min Rain = 0
KWE2 231017Z 25013KT 12/12 A2999 RMK A01 T01170118  RH  100%=      5-min Rain = 0
KWE2 231018Z 25014KT 12/12 A2999 RMK A01 T01180118  RH  100%=      5-min Rain = 0
KWE2 231019Z 25013KT 12/12 A2999 RMK A01 T01180118  RH  100%=      5-min Rain = 0
KWE2 231020Z 25013KT 12/12 A2999 RMK A01 T01180118  RH  100%=      5-min Rain = 0
KWE2 231021Z 25011KT 12/12 A2999 RMK A01 T01180118  RH  100%=      5-min Rain = 0
KWE2 231022Z 25011KT 12/12 A2999 RMK A01 T01180118  RH  100%=      5-min Rain = 0
KWE2 231023Z 25012KT 12/12 A2999 RMK A01 T01180118  RH  100%=      5-min Rain = 0
KWE2 231024Z 25011KT 12/12 A2999 RMK A01 T01180118  RH  100%=      5-min Rain = 0
KWE2 231025Z 26011KT 12/12 A2999 RMK A01 T01180118  RH  100%=      5-min Rain = 0
KWE2 231026Z 26013KT 12/12 A2999 RMK A01 T01180118  RH  100%=      5-min Rain = 0
KWE2 231027Z 26011KT 12/12 A2999 RMK A01 T01180118  RH  100%=      5-min Rain = 0
KWE2 231028Z 26012KT 12/12 A2999 RMK A01 T01180118  RH  100%=      5-min Rain = 0
KWE2 231029Z 26013KT 12/12 A2999 RMK A01 T01180118  RH  100%=      5-min Rain = 0
KWE2 231030Z 26012KT 12/12 A2999 RMK A01 T01180118  RH  100%=      5-min Rain = 0
KWE2 231031Z 25012KT 12/12 A2999 RMK A01 T01180118  RH  100%=      5-min Rain = 0
KWE2 231032Z 26013KT 12/12 A2999 RMK A01 T01180118  RH  100%=      5-min Rain = 0
KWE2 231033Z 26013KT 12/12 A2999 RMK A01 T01170117  RH  100%=      5-min Rain = 0
KWE2 231034Z 27012KT 12/12 A2999 RMK A01 T01170117  RH  100%=      5-min Rain = 0
KWE2 231035Z 26013KT 12/12 A2999 RMK A01 T01170117  RH  100%=      5-min Rain = 0
KWE2 231036Z 26010KT 12/12 A2999 RMK A01 T01170117  RH  100%=      5-min Rain = 0
KWE2 231037Z 25010KT 12/12 A2999 RMK A01 T01170117  RH  100%=      5-min Rain = 0
KWE2 231038Z 26009KT 12/12 A2999 RMK A01 T01170117  RH  100%=      5-min Rain = 0
KWE2 231039Z 26009KT 12/12 A30 RMK A01 T01170117  RH  100%=      5-min Rain = 0
KWE2 231040Z 26010KT 12/12 A30 RMK A01 T01170117  RH  100%=      5-min Rain = 0
KWE2 231041Z 26010KT 12/12 A30 RMK A01 T01160116  RH  100%=      5-min Rain = 0
KWE2 231042Z 26010KT 12/12 A30 RMK A01 T01160116  RH  100%=      5-min Rain = 0
KWE2 231043Z 26011KT 12/12 A30 RMK A01 T01160116  RH  100%=      5-min Rain = 0
KWE2 231044Z 26012KT 12/12 A30 RMK A01 T01160116  RH  100%=      5-min Rain = 0
KWE2 231045Z 26011KT 12/12 A30 RMK A01 T01160116  RH  100%=      5-min Rain = 0
KWE2 231046Z 25010KT 12/12 A30 RMK A01 T01160117  RH  100%=      5-min Rain = 0
KWE2 231047Z 26010KT 12/12 A30 RMK A01 T01160117  RH  100%=      5-min Rain = 0
KWE2 231048Z 26010KT 12/12 A30 RMK A01 T01160116  RH  100%=      5-min Rain = 0
KWE2 231049Z 25010KT 12/12 A30 RMK A01 T01150116  RH  100%=      5-min Rain = 0
KWE2 231050Z 25011KT 12/12 A30 RMK A01 T01150115  RH  100%=      5-min Rain = 0
KWE2 231051Z 26010KT 12/12 A30 RMK A01 T01150115  RH  100%=      5-min Rain = 0
KWE2 231052Z 25011KT 12/12 A30 RMK A01 T01150115  RH  100%=      5-min Rain = 0
KWE2 231053Z 26009KT 12/12 A30 RMK A01 T01150115  RH  100%=      5-min Rain = 0
KWE2 231054Z 26008KT 12/12 A30 RMK A01 T01150115  RH  100%=      5-min Rain = 0
KWE2 231055Z 26010KT 11/11 A30 RMK A01 T01140114  RH  100%=      5-min Rain = 0
KWE2 231056Z 25011KT 11/11 A30 RMK A01 T01140114  RH  100%=      5-min Rain = 0
KWE2 231057Z 26011KT 11/11 A30 RMK A01 T01140114  RH  100%=      5-min Rain = 0
KWE2 231058Z 26011KT 11/11 A30 RMK A01 T01140114  RH  100%=      5-min Rain = 0
KWE2 231059Z 25010KT 11/11 A30 RMK A01 T01140114  RH  100%=      5-min Rain = 0
KWE2 231100Z 25012KT 11/11 A30 RMK A01 T01140114  RH  100%=      5-min Rain = 0
KWE2 231101Z 25011KT 11/11 A30 RMK A01 T01130113  RH  100%=      5-min Rain = 0
KWE2 231102Z 25011KT 11/11 A30 RMK A01 T01120112  RH  100%=      5-min Rain = 0
KWE2 231103Z 25013KT 11/11 A30 RMK A01 T01120112  RH  100%=      5-min Rain = 0
KWE2 231104Z 24012KT 11/11 A30 RMK A01 T01110111  RH  100%=      5-min Rain = 0
KWE2 231105Z 25012KT 11/11 A30 RMK A01 T01100110  RH  100%=      5-min Rain = 0
KWE2 231106Z 25011KT 11/11 A30 RMK A01 T01100110  RH  100%=      5-min Rain = 0
KWE2 231107Z 25014KT 11/11 A30 RMK A01 T01090109  RH  100%=      5-min Rain = 0
KWE2 231108Z 26014KT 11/11 A30 RMK A01 T01090109  RH  100%=      5-min Rain = 0
KWE2 231109Z 26013KT 11/11 A30 RMK A01 T01080108  RH  100%=      5-min Rain = 0
KWE2 231110Z 26013KT 11/11 A30 RMK A01 T01080108  RH  100%=      5-min Rain = 0
KWE2 231111Z 26014KT 11/11 A30 RMK A01 T01080108  RH  100%=      5-min Rain = 0
KWE2 231112Z 26012KT 11/11 A30 RMK A01 T01080108  RH  100%=      5-min Rain = 0
KWE2 231113Z 26010KT 11/11 A30 RMK A01 T01080108  RH  100%=      5-min Rain = 0
KWE2 231114Z 26011KT 11/11 A30 RMK A01 T01070107  RH  100%=      5-min Rain = 0
KWE2 231115Z 26011KT 11/11 A30 RMK A01 T01070107  RH  100%=      5-min Rain = 0
KWE2 231116Z 26010KT 11/11 A30 RMK A01 T01070107  RH  100%=      5-min Rain = 0
KWE2 231117Z 26010KT 11/11 A30 RMK A01 T01060106  RH  100%=      5-min Rain = 0
KWE2 231118Z 26010KT 11/11 A30 RMK A01 T01060106  RH  100%=      5-min Rain = 0
KWE2 231119Z 26010KT 11/11 A3001 RMK A01 T01050105  RH  100%=      5-min Rain = 0
KWE2 231120Z 26010KT 11/11 A30 RMK A01 T01050105  RH  100%=      5-min Rain = 0
KWE2 231121Z 26010KT 11/11 A30 RMK A01 T01050105  RH  100%=      5-min Rain = 0
KWE2 231122Z 26010KT 10/10 A30 RMK A01 T01040104  RH  100%=      5-min Rain = 0
KWE2 231123Z 26010KT 10/10 A30 RMK A01 T01040104  RH  100%=      5-min Rain = 0
KWE2 231124Z 26010KT 10/10 A30 RMK A01 T01030103  RH  100%=      5-min Rain = 0
KWE2 231125Z 26009KT 10/10 A30 RMK A01 T01030103  RH  100%=      5-min Rain = 0
KWE2 231126Z 26010KT 10/10 A30 RMK A01 T01030103  RH  100%=      5-min Rain = 0
KWE2 231127Z 26010KT 10/10 A30 RMK A01 T01020103  RH  100%=      5-min Rain = 0
KWE2 231128Z 26009KT 10/10 A30 RMK A01 T01020102  RH  100%=      5-min Rain = 0
KWE2 231129Z 26009KT 10/10 A30 RMK A01 T01010101  RH  100%=      5-min Rain = 0
KWE2 231130Z 26009KT 10/10 A30 RMK A01 T01010101  RH  100%=      5-min Rain = 0
KWE2 231131Z 26009KT 10/10 A30 RMK A01 T01000100  RH  100%=      5-min Rain = 0
KWE2 231132Z 26009KT 10/10 A30 RMK A01 T01000100  RH  100%=      5-min Rain = 0
KWE2 231133Z 26009KT 10/10 A3001 RMK A01 T00990100  RH  100%=      5-min Rain = 0
KWE2 231134Z 27010KT 10/10 A3001 RMK A01 T00990099  RH  100%=      5-min Rain = 0
KWE2 231135Z 27009KT 10/10 A3001 RMK A01 T00990099  RH  100%=      5-min Rain = 0
KWE2 231136Z 27008KT 10/10 A3001 RMK A01 T00980098  RH  100%=      5-min Rain = 0
KWE2 231137Z 27009KT 10/10 A3001 RMK A01 T00980098  RH  100%=      5-min Rain = 0
KWE2 231138Z 27008KT 10/10 A3001 RMK A01 T00970097  RH  100%=      5-min Rain = 0
KWE2 231139Z 27008KT 10/10 A3001 RMK A01 T00960096  RH  100%=      5-min Rain = 0
KWE2 231140Z 27008KT 10/10 A3001 RMK A01 T00960096  RH  100%=      5-min Rain = 0
KWE2 231141Z 27008KT 10/10 A3001 RMK A01 T00950095  RH  100%=      5-min Rain = 0
KWE2 231142Z 27008KT 10/10 A3001 RMK A01 T00950095  RH  100%=      5-min Rain = 0
KWE2 231143Z 27008KT 09/09 A3001 RMK A01 T00940094  RH  100%=      5-min Rain = 0
KWE2 231144Z 27008KT 09/09 A3001 RMK A01 T00930093  RH  100%=      5-min Rain = 0
KWE2 231145Z 27008KT 09/09 A3001 RMK A01 T00930094  RH  100%=      5-min Rain = 0
KWE2 231146Z 27008KT 09/09 A3001 RMK A01 T00920093  RH  100%=      5-min Rain = 0
KWE2 231147Z 26008KT 09/09 A3001 RMK A01 T00920092  RH  100%=      5-min Rain = 0
KWE2 231148Z 27007KT 09/09 A3001 RMK A01 T00910091  RH  100%=      5-min Rain = 0
KWE2 231149Z 27007KT 09/09 A3001 RMK A01 T00910091  RH  100%=      5-min Rain = 0
KWE2 231150Z 27007KT 09/09 A3001 RMK A01 T00900090  RH  100%=      5-min Rain = 0
KWE2 231151Z 27007KT 09/09 A3001 RMK A01 T00890089  RH  100%=      5-min Rain = 0
KWE2 231152Z 27007KT 09/09 A3001 RMK A01 T00890089  RH  100%=      5-min Rain = 0
KWE2 231153Z 27007KT 09/09 A3001 RMK A01 T00880089  RH  100%=      5-min Rain = 0
KWE2 231154Z 26007KT 09/09 A3001 RMK A01 T00870087  RH  100%=      5-min Rain = 0
KWE2 231155Z 26007KT 09/09 A3001 RMK A01 T00870087  RH  100%=      5-min Rain = 0
KWE2 231156Z 26007KT 09/09 A3001 RMK A01 T00860086  RH  100%=      5-min Rain = 0
KWE2 231157Z 26007KT 09/09 A3001 RMK A01 T00850085  RH  100%=      5-min Rain = 0
KWE2 231158Z 26007KT 09/09 A3001 RMK A01 T00850085  RH  100%=      5-min Rain = 0
KWE2 231159Z 26007KT 08/08 A3001 RMK A01 T00840084  RH  100%=      5-min Rain = 0
KWE2 231200Z 26007KT 08/08 A3001 RMK A01 T00840084  RH  100%=      5-min Rain = 0
KWE2 231201Z 26007KT 08/08 A3001 RMK A01 T00830083  RH  100%=      5-min Rain = 0
KWE2 231202Z 26007KT 08/08 A3002 RMK A01 T00830083  RH  100%=      5-min Rain = 0
KWE2 231203Z 26008KT 08/08 A3002 RMK A01 T00820082  RH  100%=      5-min Rain = 0
KWE2 231204Z 26008KT 08/08 A3002 RMK A01 T00820082  RH  100%=      5-min Rain = 0
KWE2 231205Z 26008KT 08/08 A3002 RMK A01 T00820082  RH  100%=      5-min Rain = 0
KWE2 231206Z 27007KT 08/08 A3002 RMK A01 T00810081  RH  100%=      5-min Rain = 0
KWE2 231207Z 26007KT 08/08 A3002 RMK A01 T00810081  RH  100%=      5-min Rain = 0
KWE2 231208Z 26007KT 08/08 A3002 RMK A01 T00810081  RH  100%=      5-min Rain = 0
KWE2 231209Z 26007KT 08/08 A3002 RMK A01 T00810081  RH  100%=      5-min Rain = 0
KWE2 231210Z 26007KT 08/08 A3002 RMK A01 T00800081  RH  100%=      5-min Rain = 0
KWE2 231211Z 26007KT 08/08 A3002 RMK A01 T00800080  RH  100%=      5-min Rain = 0
KWE2 231212Z 26007KT 08/08 A3002 RMK A01 T00800080  RH  100%=      5-min Rain = 0
KWE2 231213Z 26007KT 08/08 A3002 RMK A01 T00800080  RH  100%=      5-min Rain = 0
KWE2 231214Z 26007KT 08/08 A3002 RMK A01 T00800080  RH  100%=      5-min Rain = 0
KWE2 231215Z 26007KT 08/08 A3002 RMK A01 T00790079  RH  100%=      5-min Rain = 0
KWE2 231216Z 26007KT 08/08 A3002 RMK A01 T00790079  RH  100%=      5-min Rain = 0
KWE2 231217Z 26007KT 08/08 A3002 RMK A01 T00780078  RH  100%=      5-min Rain = 0
KWE2 231218Z 26006KT 08/08 A3002 RMK A01 T00780078  RH  100%=      5-min Rain = 0
KWE2 231219Z 26006KT 08/08 A3002 RMK A01 T00780078  RH  100%=      5-min Rain = 0
KWE2 231220Z 26006KT 08/08 A3002 RMK A01 T00770078  RH  100%=      5-min Rain = 0
KWE2 231221Z 26006KT 08/08 A3002 RMK A01 T00770077  RH  100%=      5-min Rain = 0
KWE2 231222Z 25006KT 08/08 A3002 RMK A01 T00760076  RH  100%=      5-min Rain = 0
KWE2 231223Z 25006KT 08/08 A3002 RMK A01 T00750075  RH  100%=      5-min Rain = 0
KWE2 231224Z 26006KT 07/07 A3002 RMK A01 T00740074  RH  100%=      5-min Rain = 0
KWE2 231225Z 25006KT 07/07 A3002 RMK A01 T00730073  RH  100%=      5-min Rain = 0
KWE2 231226Z 26006KT 07/07 A3002 RMK A01 T00710071  RH  100%=      5-min Rain = 0
KWE2 231227Z 26006KT 07/07 A3002 RMK A01 T00700070  RH  100%=      5-min Rain = 0
KWE2 231228Z 26005KT 07/07 A3002 RMK A01 T00690069  RH  100%=      5-min Rain = 0
KWE2 231229Z 26005KT 07/07 A3002 RMK A01 T00680068  RH  100%=      5-min Rain = 0
KWE2 231230Z 26004KT 07/07 A3002 RMK A01 T00670067  RH  100%=      5-min Rain = 0
KWE2 231231Z 26004KT 07/07 A3002 RMK A01 T00660066  RH  100%=      5-min Rain = 0
KWE2 231232Z 25004KT 07/07 A3002 RMK A01 T00660066  RH  100%=      5-min Rain = 0
KWE2 231233Z 26004KT 07/07 A3002 RMK A01 T00650065  RH  100%=      5-min Rain = 0
KWE2 231234Z 26004KT 06/06 A3003 RMK A01 T00640064  RH  100%=      5-min Rain = 0
KWE2 231235Z 26004KT 06/06 A3003 RMK A01 T00630063  RH  100%=      5-min Rain = 0
KWE2 231236Z 26004KT 06/06 A3003 RMK A01 T00620062  RH  100%=      5-min Rain = 0
KWE2 231237Z 26004KT 06/06 A3003 RMK A01 T00610061  RH  100%=      5-min Rain = 0
KWE2 231238Z 26003KT 06/06 A3003 RMK A01 T00610061  RH  100%=      5-min Rain = 0
KWE2 231239Z 26003KT 06/06 A3003 RMK A01 T00600060  RH  100%=      5-min Rain = 0
KWE2 231240Z 26003KT 06/06 A3003 RMK A01 T00600060  RH  100%=      5-min Rain = 0
KWE2 231241Z 25002KT 06/06 A3003 RMK A01 T00600060  RH  100%=      5-min Rain = 0
KWE2 231242Z 25002KT 06/06 A3003 RMK A01 T00600060  RH  100%=      5-min Rain = 0
KWE2 231243Z 26003KT 06/06 A3003 RMK A01 T00600060  RH  100%=      5-min Rain = 0
KWE2 231244Z 26003KT 06/06 A3003 RMK A01 T00600060  RH  100%=      5-min Rain = 0
KWE2 231245Z 26003KT 06/06 A3003 RMK A01 T00590059  RH  100%=      5-min Rain = 0
KWE2 231246Z 26003KT 06/06 A3003 RMK A01 T00590060  RH  100%=      5-min Rain = 0
KWE2 231247Z 27003KT 06/06 A3003 RMK A01 T00590059  RH  100%=      5-min Rain = 0
KWE2 231248Z 27003KT 06/06 A3003 RMK A01 T00580058  RH  100%=      5-min Rain = 0
KWE2 231249Z 27003KT 06/06 A3003 RMK A01 T00570057  RH  100%=      5-min Rain = 0
KWE2 231250Z 28003KT 06/06 A3003 RMK A01 T00560056  RH  100%=      5-min Rain = 0
KWE2 231251Z 28003KT 06/06 A3003 RMK A01 T00560056  RH  100%=      5-min Rain = 0
KWE2 231252Z 28003KT 06/06 A3003 RMK A01 T00560056  RH  100%=      5-min Rain = 0
KWE2 231253Z 28003KT 06/06 A3003 RMK A01 T00560056  RH  100%=      5-min Rain = 0
KWE2 231254Z 28003KT 06/06 A3003 RMK A01 T00560056  RH  100%=      5-min Rain = 0
KWE2 231255Z 28004KT 06/06 A3004 RMK A01 T00560057  RH  100%=      5-min Rain = 0
KWE2 231256Z 28004KT 06/06 A3004 RMK A01 T00570057  RH  100%=      5-min Rain = 0
KWE2 231257Z 28005KT 06/06 A3004 RMK A01 T00570057  RH  100%=      5-min Rain = 0
KWE2 231258Z 28005KT 06/06 A3004 RMK A01 T00580058  RH  100%=      5-min Rain = 0
KWE2 231259Z 28005KT 06/06 A3004 RMK A01 T00590059  RH  100%=      5-min Rain = 0
KWE2 231300Z 28005KT 06/06 A3004 RMK A01 T00580059  RH  100%=      5-min Rain = 0
KWE2 231301Z 28005KT 06/06 A3004 RMK A01 T00590059  RH  100%=      5-min Rain = 0
KWE2 231302Z 28005KT 06/06 A3004 RMK A01 T00600060  RH  100%=      5-min Rain = 0
KWE2 231303Z 28005KT 06/06 A3004 RMK A01 T00610061  RH  100%=      5-min Rain = 0
KWE2 231304Z 28005KT 06/06 A3004 RMK A01 T00610061  RH  100%=      5-min Rain = 0
KWE2 231305Z 28006KT 06/06 A3004 RMK A01 T00620062  RH  100%=      5-min Rain = 0
KWE2 231306Z 28006KT 06/06 A3004 RMK A01 T00620062  RH  100%=      5-min Rain = 0
KWE2 231307Z 29006KT 06/06 A3004 RMK A01 T00620062  RH  100%=      5-min Rain = 0
KWE2 231308Z 29006KT 06/06 A3004 RMK A01 T00620062  RH  100%=      5-min Rain = 0
KWE2 231309Z 29006KT 06/06 A3004 RMK A01 T00630063  RH  100%=      5-min Rain = 0
KWE2 231310Z 29006KT 06/06 A3004 RMK A01 T00630063  RH  100%=      5-min Rain = 0
KWE2 231311Z 29006KT 06/06 A3004 RMK A01 T00620062  RH  100%=      5-min Rain = 0
KWE2 231312Z 29007KT 06/06 A3004 RMK A01 T00630063  RH  100%=      5-min Rain = 0
KWE2 231313Z 29007KT 06/06 A3004 RMK A01 T00630063  RH  100%=      5-min Rain = 0
KWE2 231314Z 29007KT 06/06 A3004 RMK A01 T00630064  RH  100%=      5-min Rain = 0
KWE2 231315Z 29007KT 06/06 A3004 RMK A01 T00640064  RH  100%=      5-min Rain = 0
KWE2 231316Z 29007KT 06/06 A3004 RMK A01 T00640064  RH  100%=      5-min Rain = 0
KWE2 231317Z 30007KT 06/06 A3004 RMK A01 T00640064  RH  100%=      5-min Rain = 0
KWE2 231318Z 30007KT 07/07 A3004 RMK A01 T00650065  RH  100%=      5-min Rain = 0
KWE2 231319Z 30007KT 07/07 A3004 RMK A01 T00660066  RH  100%=      5-min Rain = 0
KWE2 231320Z 30007KT 07/07 A3004 RMK A01 T00670067  RH  100%=      5-min Rain = 0
KWE2 231321Z 30007KT 07/07 A3005 RMK A01 T00670067  RH  100%=      5-min Rain = 0
KWE2 231322Z 30007KT 07/07 A3005 RMK A01 T00680068  RH  100%=      5-min Rain = 0
KWE2 231323Z 30007KT 07/07 A3005 RMK A01 T00690069  RH  100%=      5-min Rain = 0
KWE2 231324Z 30007KT 07/07 A3005 RMK A01 T00690068  RH  099%=      5-min Rain = 0
KWE2 231325Z 30007KT 07/07 A3005 RMK A01 T00700067  RH  098%=      5-min Rain = 0
KWE2 231326Z 30007KT 07/07 A3005 RMK A01 T00700066  RH  097%=      5-min Rain = 0
KWE2 231327Z 31007KT 07/07 A3005 RMK A01 T00710065  RH  096%=      5-min Rain = 0
KWE2 231328Z 31007KT 07/07 A3005 RMK A01 T00720065  RH  095%=      5-min Rain = 0
KWE2 231329Z 30007KT 07/06 A3005 RMK A01 T00730063  RH  094%=      5-min Rain = 0
KWE2 231330Z 31006KT 07/06 A3005 RMK A01 T00730062  RH  093%=      5-min Rain = 0
KWE2 231331Z 31007KT 07/06 A3005 RMK A01 T00740061  RH  092%=      5-min Rain = 0
KWE2 231332Z 31007KT 07/06 A3005 RMK A01 T00740060  RH  091%=      5-min Rain = 0
KWE2 231333Z 31006KT 08/06 A3005 RMK A01 T00750060  RH  090%=      5-min Rain = 0
KWE2 231334Z 30006KT 08/06 A3005 RMK A01 T00750059  RH  090%=      5-min Rain = 0
KWE2 231335Z 31006KT 08/06 A3005 RMK A01 T00760058  RH  089%=      5-min Rain = 0
KWE2 231336Z 31006KT 08/06 A3005 RMK A01 T00760058  RH  088%=      5-min Rain = 0
KWE2 231337Z 31006KT 08/06 A3005 RMK A01 T00770057  RH  087%=      5-min Rain = 0
KWE2 231338Z 31006KT 08/06 A3005 RMK A01 T00780056  RH  086%=      5-min Rain = 0
KWE2 231339Z 31007KT 08/06 A3005 RMK A01 T00780056  RH  086%=      5-min Rain = 0
KWE2 231340Z 31006KT 08/06 A3005 RMK A01 T00790055  RH  085%=      5-min Rain = 0
KWE2 231341Z 30007KT 08/05 A3005 RMK A01 T00790054  RH  084%=      5-min Rain = 0
KWE2 231342Z 31006KT 08/05 A3005 RMK A01 T00800054  RH  084%=      5-min Rain = 0
KWE2 231343Z 31007KT 08/06 A3005 RMK A01 T00810055  RH  084%=      5-min Rain = 0
KWE2 231344Z 31006KT 08/05 A3005 RMK A01 T00810054  RH  083%=      5-min Rain = 0
KWE2 231345Z 31007KT 08/05 A3005 RMK A01 T00820054  RH  083%=      5-min Rain = 0
KWE2 231346Z 31006KT 08/05 A3005 RMK A01 T00820052  RH  082%=      5-min Rain = 0
KWE2 231347Z 30006KT 08/05 A3005 RMK A01 T00830054  RH  082%=      5-min Rain = 0
KWE2 231348Z 31007KT 08/05 A3006 RMK A01 T00830054  RH  082%=      5-min Rain = 0
KWE2 231349Z 31006KT 08/05 A3006 RMK A01 T00830052  RH  081%=      5-min Rain = 0
KWE2 231350Z 31007KT 08/05 A3006 RMK A01 T00840053  RH  080%=      5-min Rain = 0
KWE2 231351Z 31007KT 09/05 A3006 RMK A01 T00850050  RH  078%=      5-min Rain = 0
KWE2 231352Z 31007KT 09/05 A3006 RMK A01 T00860051  RH  078%=      5-min Rain = 0
KWE2 231353Z 30007KT 09/05 A3006 RMK A01 T00870051  RH  078%=      5-min Rain = 0
KWE2 231354Z 31008KT 09/05 A3006 RMK A01 T00870050  RH  078%=      5-min Rain = 0
KWE2 231355Z 31008KT 09/05 A3006 RMK A01 T00870048  RH  076%=      5-min Rain = 0
KWE2 231356Z 30007KT 09/05 A3006 RMK A01 T00880049  RH  076%=      5-min Rain = 0
KWE2 231357Z 30006KT 09/05 A3006 RMK A01 T00880049  RH  076%=      5-min Rain = 0
KWE2 231358Z 30007KT 09/05 A3006 RMK A01 T00890047  RH  075%=      5-min Rain = 0
KWE2 231359Z 30007KT 09/05 A3006 RMK A01 T00900048  RH  075%=      5-min Rain = 0
KWE2 231400Z 30007KT 09/04 A3006 RMK A01 T00910044  RH  072%=      5-min Rain = 0
KWE2 231401Z 30007KT 09/04 A3006 RMK A01 T00920041  RH  071%=      5-min Rain = 0
KWE2 231402Z 30008KT 09/04 A3006 RMK A01 T00930043  RH  071%=      5-min Rain = 0
KWE2 231403Z 30008KT 09/04 A3006 RMK A01 T00930041  RH  070%=      5-min Rain = 0
KWE2 231404Z 30007KT 09/04 A3006 RMK A01 T00930042  RH  070%=      5-min Rain = 0
KWE2 231405Z 30007KT 09/04 A3006 RMK A01 T00940043  RH  071%=      5-min Rain = 0
KWE2 231406Z 30008KT 09/05 A3006 RMK A01 T00940045  RH  071%=      5-min Rain = 0
KWE2 231407Z 30007KT 10/04 A3006 RMK A01 T00950043  RH  070%=      5-min Rain = 0
KWE2 231408Z 30006KT 10/05 A3006 RMK A01 T00950047  RH  072%=      5-min Rain = 0
KWE2 231409Z 30007KT 10/05 A3007 RMK A01 T00950049  RH  073%=      5-min Rain = 0
KWE2 231410Z 30006KT 10/05 A3007 RMK A01 T00960049  RH  073%=      5-min Rain = 0
KWE2 231411Z 30006KT 10/05 A3007 RMK A01 T00960051  RH  074%=      5-min Rain = 0
KWE2 231412Z 30007KT 10/05 A3007 RMK A01 T00970051  RH  073%=      5-min Rain = 0
KWE2 231413Z 30007KT 10/05 A3007 RMK A01 T00970051  RH  073%=      5-min Rain = 0
KWE2 231414Z 30006KT 10/05 A3007 RMK A01 T00980050  RH  072%=      5-min Rain = 0
KWE2 231415Z 30006KT 10/05 A3007 RMK A01 T00990052  RH  073%=      5-min Rain = 0
KWE2 231416Z 30007KT 10/05 A3007 RMK A01 T01000054  RH  073%=      5-min Rain = 0
KWE2 231417Z 31008KT 10/05 A3007 RMK A01 T01000049  RH  070%=      5-min Rain = 0
KWE2 231418Z 31007KT 10/05 A3007 RMK A01 T01010047  RH  069%=      5-min Rain = 0
KWE2 231419Z 31008KT 10/05 A3007 RMK A01 T01020045  RH  068%=      5-min Rain = 0
KWE2 231420Z 31007KT 10/05 A3007 RMK A01 T01030046  RH  068%=      5-min Rain = 0
KWE2 231421Z 31006KT 10/05 A3007 RMK A01 T01030049  RH  069%=      5-min Rain = 0
KWE2 231422Z 31007KT 11/05 A3007 RMK A01 T01050050  RH  069%=      5-min Rain = 0
KWE2 231423Z 31006KT 11/05 A3007 RMK A01 T01060046  RH  067%=      5-min Rain = 0
KWE2 231424Z 31007KT 11/05 A3007 RMK A01 T01070046  RH  066%=      5-min Rain = 0
KWE2 231425Z 31006KT 11/05 A3007 RMK A01 T01080047  RH  066%=      5-min Rain = 0
KWE2 231426Z 31006KT 11/05 A3007 RMK A01 T01090047  RH  066%=      5-min Rain = 0
KWE2 231427Z 31007KT 11/05 A3007 RMK A01 T01100048  RH  065%=      5-min Rain = 0
KWE2 231428Z 32006KT 11/05 A3007 RMK A01 T01110045  RH  064%=      5-min Rain = 0
KWE2 231429Z 32007KT 11/04 A3007 RMK A01 T01120043  RH  062%=      5-min Rain = 0
KWE2 231430Z 32007KT 11/04 A3007 RMK A01 T01130041  RH  061%=      5-min Rain = 0
KWE2 231431Z 32007KT 12/04 A3007 RMK A01 T01150040  RH  060%=      5-min Rain = 0
KWE2 231432Z 31007KT 12/04 A3007 RMK A01 T01160043  RH  061%=      5-min Rain = 0
KWE2 231433Z 31008KT 12/04 A3007 RMK A01 T01170042  RH  060%=      5-min Rain = 0
KWE2 231434Z 32009KT 12/04 A3007 RMK A01 T01190036  RH  057%=      5-min Rain = 0
KWE2 231435Z 32008KT 12/04 A3007 RMK A01 T01200036  RH  057%=      5-min Rain = 0
KWE2 231436Z 32007KT 12/04 A3007 RMK A01 T01200040  RH  058%=      5-min Rain = 0
KWE2 231437Z 32008KT 12/04 A3007 RMK A01 T01220043  RH  058%=      5-min Rain = 0
KWE2 231438Z 32007KT 12/04 A3007 RMK A01 T01220038  RH  056%=      5-min Rain = 0
KWE2 231439Z 32006KT 12/05 A3007 RMK A01 T01230045  RH  059%=      5-min Rain = 0
KWE2 231440Z 32007KT 12/04 A3007 RMK A01 T01240043  RH  058%=      5-min Rain = 0
KWE2 231441Z 32006KT 13/05 A3007 RMK A01 T01250045  RH  058%=      5-min Rain = 0
KWE2 231442Z 32006KT 13/05 A3007 RMK A01 T01260045  RH  058%=      5-min Rain = 0
KWE2 231443Z 32008KT 13/04 A3007 RMK A01 T01260043  RH  057%=      5-min Rain = 0
KWE2 231444Z 32007KT 13/04 A3007 RMK A01 T01270039  RH  055%=      5-min Rain = 0
KWE2 231445Z 32007KT 13/04 A3007 RMK A01 T01280039  RH  055%=      5-min Rain = 0
KWE2 231446Z 32006KT 13/04 A3007 RMK A01 T01290037  RH  053%=      5-min Rain = 0
KWE2 231447Z 32008KT 13/04 A3007 RMK A01 T01300039  RH  054%=      5-min Rain = 0
KWE2 231448Z 32007KT 13/04 A3007 RMK A01 T01310037  RH  053%=      5-min Rain = 0
KWE2 231449Z 32007KT 13/04 A3007 RMK A01 T01330039  RH  053%=      5-min Rain = 0
KWE2 231450Z 32008KT 13/04 A3007 RMK A01 T01340036  RH  051%=      5-min Rain = 0
KWE2 231451Z 32007KT 14/04 A3007 RMK A01 T01350035  RH  051%=      5-min Rain = 0
KWE2 231452Z 32008KT 14/03 A3007 RMK A01 T01360033  RH  050%=      5-min Rain = 0
KWE2 231453Z 32008KT 14/03 A3007 RMK A01 T01360031  RH  049%=      5-min Rain = 0
KWE2 231454Z 32007KT 14/03 A3007 RMK A01 T01380032  RH  049%=      5-min Rain = 0
KWE2 231455Z 32008KT 14/03 A3007 RMK A01 T01390032  RH  048%=      5-min Rain = 0
KWE2 231456Z 32008KT 14/02 A3007 RMK A01 T01400024  RH  046%=      5-min Rain = 0
KWE2 231457Z 32006KT 14/04 A3007 RMK A01 T01400035  RH  049%=      5-min Rain = 0
KWE2 231458Z 32007KT 14/04 A3007 RMK A01 T01430036  RH  049%=      5-min Rain = 0
KWE2 231459Z 33008KT 14/03 A3007 RMK A01 T01440028  RH  045%=      5-min Rain = 0
KWE2 231500Z 33007KT 14/03 A3007 RMK A01 T01440026  RH  045%=      5-min Rain = 0
KWE2 231501Z 33008KT 14/03 A3007 RMK A01 T01440026  RH  045%=      5-min Rain = 0
KWE2 231502Z 32007KT 15/03 A3007 RMK A01 T01450030  RH  046%=      5-min Rain = 0
KWE2 231503Z 31008KT 15/02 A3007 RMK A01 T01470024  RH  044%=      5-min Rain = 0
KWE2 231504Z 32009KT 15/02 A3007 RMK A01 T01470021  RH  042%=      5-min Rain = 0
KWE2 231505Z 32009KT 15/02 A3007 RMK A01 T01480021  RH  042%=      5-min Rain = 0
KWE2 231506Z 31008KT 15/02 A3007 RMK A01 T01480018  RH  041%=      5-min Rain = 0
KWE2 231507Z 32009KT 15/02 A3007 RMK A01 T01480015  RH  040%=      5-min Rain = 0
KWE2 231508Z 32010KT 15/01 A3007 RMK A01 T01490011  RH  039%=      5-min Rain = 0
KWE2 231509Z 32009KT 15/01 A3007 RMK A01 T01490009  RH  039%=      5-min Rain = 0
KWE2 231510Z 31009KT 15/01 A3007 RMK A01 T01490011  RH  039%=      5-min Rain = 0
KWE2 231511Z 31009KT 15/01 A3007 RMK A01 T01500008  RH  038%=      5-min Rain = 0
KWE2 231512Z 31009KT 15/01 A3007 RMK A01 T01500012  RH  039%=      5-min Rain = 0
KWE2 231513Z 32008KT 15/01 A3007 RMK A01 T01500014  RH  040%=      5-min Rain = 0
KWE2 231514Z 32008KT 15/01 A3007 RMK A01 T01520008  RH  038%=      5-min Rain = 0
KWE2 231515Z 32008KT 15/01 A3007 RMK A01 T01530012  RH  038%=      5-min Rain = 0
KWE2 231516Z 32008KT 16/01 A3007 RMK A01 T01560011  RH  037%=      5-min Rain = 0
KWE2 231517Z 32008KT 16/01 A3007 RMK A01 T01580006  RH  036%=      5-min Rain = 0
KWE2 231518Z 33008KT 16/01 A3007 RMK A01 T01580008  RH  036%=      5-min Rain = 0
KWE2 231519Z 32007KT 16/01 A3007 RMK A01 T01590007  RH  036%=      5-min Rain = 0
KWE2 231520Z 32008KT 16/01 A3007 RMK A01 T01580008  RH  036%=      5-min Rain = 0
KWE2 231521Z 33009KT 16/01 A3007 RMK A01 T01580011  RH  037%=      5-min Rain = 0
KWE2 231522Z 33009KT 16/01 A3007 RMK A01 T01580009  RH  036%=      5-min Rain = 0
KWE2 231523Z 33010KT 16/M00 A3007 RMK A01 T01581004  RH  033%=      5-min Rain = 0
KWE2 231524Z 32010KT 16/M01 A3007 RMK A01 T01601013  RH  031%=      5-min Rain = 0
KWE2 231525Z 31011KT 16/M01 A3007 RMK A01 T01591011  RH  031%=      5-min Rain = 0
KWE2 231526Z 32010KT 16/M01 A3007 RMK A01 T01581005  RH  033%=      5-min Rain = 0
KWE2 231527Z 32009KT 16/M00 A3007 RMK A01 T01581002  RH  033%=      5-min Rain = 0
KWE2 231528Z 33010KT 16/M00 A3007 RMK A01 T01581001  RH  034%=      5-min Rain = 0
KWE2 231529Z 33011KT 16/M01 A3007 RMK A01 T01601007  RH  032%=      5-min Rain = 0
KWE2 231530Z 32010KT 16/M01 A3007 RMK A01 T01611012  RH  031%=      5-min Rain = 0
KWE2 231531Z 33010KT 16/M01 A3007 RMK A01 T01601013  RH  031%=      5-min Rain = 0
KWE2 231532Z 33010KT 16/M01 A3007 RMK A01 T01611011  RH  031%=      5-min Rain = 0
KWE2 231533Z 33011KT 16/M01 A3007 RMK A01 T01621008  RH  031%=      5-min Rain = 0
KWE2 231534Z 32012KT 16/M02 A3007 RMK A01 T01631015  RH  029%=      5-min Rain = 0
KWE2 231535Z 33011KT 16/M01 A3007 RMK A01 T01631012  RH  030%=      5-min Rain = 0
KWE2 231536Z 33012KT 16/M01 A3007 RMK A01 T01641010  RH  031%=      5-min Rain = 0
KWE2 231537Z 33011KT 16/M02 A3007 RMK A01 T01641015  RH  029%=      5-min Rain = 0
KWE2 231538Z 33012KT 16/M02 A3007 RMK A01 T01641015  RH  029%=      5-min Rain = 0
KWE2 231539Z 33010KT 16/M02 A3007 RMK A01 T01641015  RH  029%=      5-min Rain = 0
KWE2 231540Z 32011KT 16/M02 A3007 RMK A01 T01641017  RH  029%=      5-min Rain = 0
KWE2 231541Z 32010KT 16/M01 A3007 RMK A01 T01641012  RH  030%=      5-min Rain = 0
KWE2 231542Z 33010KT 17/M01 A3007 RMK A01 T01661012  RH  030%=      5-min Rain = 0
KWE2 231543Z 32011KT 17/M01 A3007 RMK A01 T01671012  RH  030%=      5-min Rain = 0
KWE2 231544Z 33011KT 17/M01 A3007 RMK A01 T01681013  RH  029%=      5-min Rain = 0
KWE2 231545Z 33011KT 17/M01 A3007 RMK A01 T01681011  RH  029%=      5-min Rain = 0
KWE2 231546Z 32009KT 17/M01 A3007 RMK A01 T01681010  RH  030%=      5-min Rain = 0
KWE2 231547Z 32011KT 17/M01 A3007 RMK A01 T01691008  RH  030%=      5-min Rain = 0
KWE2 231548Z 32010KT 17/M01 A3007 RMK A01 T01681008  RH  030%=      5-min Rain = 0
KWE2 231549Z 33009KT 17/M01 A3007 RMK A01 T01671007  RH  030%=      5-min Rain = 0
KWE2 231550Z 33008KT 17/M01 A3007 RMK A01 T01671007  RH  031%=      5-min Rain = 0
KWE2 231551Z 33009G14KT 17/M01 A3007 RMK A01 T01681007  RH  030%=      5-min Rain = 0
KWE2 231552Z 32012KT 17/M01 A3007 RMK A01 T01711010  RH  029%=      5-min Rain = 0
KWE2 231553Z 31011KT 17/M02 A3007 RMK A01 T01711020  RH  027%=      5-min Rain = 0
KWE2 231554Z 31012KT 17/M02 A3007 RMK A01 T01691020  RH  028%=      5-min Rain = 0
KWE2 231555Z 32012KT 17/M02 A3007 RMK A01 T01681022  RH  027%=      5-min Rain = 0
KWE2 231556Z 33010KT 17/M02 A3007 RMK A01 T01701018  RH  028%=      5-min Rain = 0
KWE2 231557Z 32012KT 17/M02 A3007 RMK A01 T01721015  RH  028%=      5-min Rain = 0
KWE2 231558Z 32011KT 17/M02 A3007 RMK A01 T01721015  RH  028%=      5-min Rain = 0
KWE2 231559Z 33012KT 17/M01 A3007 RMK A01 T01731012  RH  028%=      5-min Rain = 0
KWE2 231600Z 32010KT 17/M02 A3007 RMK A01 T01731018  RH  027%=      5-min Rain = 0
KWE2 231601Z 32008KT 17/M01 A3007 RMK A01 T01711013  RH  029%=      5-min Rain = 0
KWE2 231602Z 31009KT 17/M01 A3007 RMK A01 T01701009  RH  029%=      5-min Rain = 0
KWE2 231603Z 30013KT 17/M01 A3007 RMK A01 T01731012  RH  028%=      5-min Rain = 0
KWE2 231604Z 30014KT 18/M02 A3007 RMK A01 T01751023  RH  026%=      5-min Rain = 0
KWE2 231605Z 31013KT 17/M03 A3007 RMK A01 T01741030  RH  025%=      5-min Rain = 0
KWE2 231606Z 31011KT 17/M03 A3007 RMK A01 T01741029  RH  025%=      5-min Rain = 0
KWE2 231607Z 30011KT 18/M03 A3007 RMK A01 T01751026  RH  025%=      5-min Rain = 0
KWE2 231608Z 30012G17KT 18/M03 A3007 RMK A01 T01751025  RH  025%=      5-min Rain = 0
KWE2 231609Z 29014KT 18/M03 A3007 RMK A01 T01761028  RH  025%=      5-min Rain = 0
KWE2 231610Z 29012KT 18/M04 A3007 RMK A01 T01761036  RH  023%=      5-min Rain = 0
KWE2 231611Z 30012KT 18/M03 A3007 RMK A01 T01751033  RH  024%=      5-min Rain = 0
KWE2 231612Z 31012KT 18/M03 A3007 RMK A01 T01771028  RH  024%=      5-min Rain = 0
KWE2 231613Z 30015KT 18/M03 A3007 RMK A01 T01771030  RH  024%=      5-min Rain = 0
KWE2 231614Z 31013KT 18/M03 A3007 RMK A01 T01761031  RH  024%=      5-min Rain = 0
KWE2 231615Z 31010KT 18/M03 A3007 RMK A01 T01761030  RH  024%=      5-min Rain = 0
KWE2 231616Z 31010KT 18/M03 A3007 RMK A01 T01771030  RH  024%=      5-min Rain = 0
KWE2 231617Z 32009KT 18/M03 A3007 RMK A01 T01751032  RH  024%=      5-min Rain = 0
KWE2 231618Z 30010KT 17/M03 A3007 RMK A01 T01731031  RH  025%=      5-min Rain = 0
KWE2 231619Z 30013G18KT 18/M03 A3007 RMK A01 T01761030  RH  024%=      5-min Rain = 0
KWE2 231620Z 30015KT 18/M03 A3007 RMK A01 T01791030  RH  024%=      5-min Rain = 0
KWE2 231621Z 29015KT 18/M03 A3007 RMK A01 T01791032  RH  023%=      5-min Rain = 0
KWE2 231622Z 30014KT 18/M03 A3007 RMK A01 T01791033  RH  023%=      5-min Rain = 0
KWE2 231623Z 30014KT 18/M03 A3007 RMK A01 T01771034  RH  023%=      5-min Rain = 0
KWE2 231624Z 30015KT 18/M03 A3007 RMK A01 T01771032  RH  024%=      5-min Rain = 0
KWE2 231625Z 31013KT 18/M04 A3007 RMK A01 T01771035  RH  023%=      5-min Rain = 0
KWE2 231626Z 30013KT 18/M03 A3007 RMK A01 T01761033  RH  024%=      5-min Rain = 0
KWE2 231627Z 32011KT 18/M03 A3007 RMK A01 T01761031  RH  024%=      5-min Rain = 0
KWE2 231628Z 31011G16KT 18/M03 A3007 RMK A01 T01761032  RH  024%=      5-min Rain = 0
KWE2 231629Z 30011KT 18/M03 A3007 RMK A01 T01771031  RH  024%=      5-min Rain = 0
KWE2 231630Z 30012KT 18/M03 A3007 RMK A01 T01791030  RH  024%=      5-min Rain = 0
KWE2 231631Z 29011G16KT 18/M03 A3007 RMK A01 T01801031  RH  024%=      5-min Rain = 0
KWE2 231632Z 30013KT 18/M03 A3007 RMK A01 T01821028  RH  024%=      5-min Rain = 0
KWE2 231633Z 31013KT 19/M03 A3007 RMK A01 T01851025  RH  024%=      5-min Rain = 0
KWE2 231634Z 30012KT 19/M03 A3007 RMK A01 T01851028  RH  023%=      5-min Rain = 0
KWE2 231635Z 29015KT 18/M03 A3007 RMK A01 T01831033  RH  023%=      5-min Rain = 0
KWE2 231636Z 30015KT 18/M03 A3007 RMK A01 T01801030  RH  024%=      5-min Rain = 0
KWE2 231637Z 30015KT 18/M03 A3007 RMK A01 T01801033  RH  023%=      5-min Rain = 0
KWE2 231638Z 29014KT 18/M03 A3007 RMK A01 T01791033  RH  023%=      5-min Rain = 0
KWE2 231639Z 30014KT 18/M03 A3007 RMK A01 T01781033  RH  024%=      5-min Rain = 0
KWE2 231640Z 30012KT 18/M03 A3007 RMK A01 T01771033  RH  024%=      5-min Rain = 0
KWE2 231641Z 30013KT 18/M03 A3007 RMK A01 T01761030  RH  024%=      5-min Rain = 0
KWE2 231642Z 30016KT 18/M03 A3007 RMK A01 T01781027  RH  025%=      5-min Rain = 0
KWE2 231643Z 30014KT 18/M03 A3007 RMK A01 T01801027  RH  024%=      5-min Rain = 0
KWE2 231644Z 30013KT 18/M03 A3007 RMK A01 T01801029  RH  024%=      5-min Rain = 0
KWE2 231645Z 31013KT 18/M03 A3007 RMK A01 T01781031  RH  024%=      5-min Rain = 0
KWE2 231646Z 32010KT 18/M03 A3007 RMK A01 T01771030  RH  024%=      5-min Rain = 0
KWE2 231647Z 32011KT 18/M03 A3007 RMK A01 T01771028  RH  025%=      5-min Rain = 0
KWE2 231648Z 31012KT 18/M03 A3007 RMK A01 T01781026  RH  025%=      5-min Rain = 0
KWE2 231649Z 29012KT 18/M03 A3007 RMK A01 T01791025  RH  025%=      5-min Rain = 0
KWE2 231650Z 29011KT 18/M02 A3007 RMK A01 T01801024  RH  025%=      5-min Rain = 0
KWE2 231651Z 29013KT 18/M02 A3007 RMK A01 T01821023  RH  025%=      5-min Rain = 0
KWE2 231652Z 31012KT 18/M02 A3007 RMK A01 T01831024  RH  024%=      5-min Rain = 0
KWE2 231653Z 32011KT 18/M03 A3007 RMK A01 T01821027  RH  024%=      5-min Rain = 0
KWE2 231654Z 31012KT 18/M03 A3007 RMK A01 T01801027  RH  024%=      5-min Rain = 0
KWE2 231655Z 32011G16KT 18/M02 A3007 RMK A01 T01801024  RH  025%=      5-min Rain = 0
KWE2 231656Z 30011KT 18/M02 A3007 RMK A01 T01831022  RH  025%=      5-min Rain = 0
KWE2 231657Z 29009KT 18/M02 A3007 RMK A01 T01831021  RH  025%=      5-min Rain = 0
KWE2 231658Z 30012KT 18/M02 A3006 RMK A01 T01841019  RH  025%=      5-min Rain = 0
KWE2 231659Z 31010KT 19/M02 A3006 RMK A01 T01861020  RH  025%=      5-min Rain = 0
KWE2 231700Z 30009KT 19/M02 A3007 RMK A01 T01851020  RH  025%=      5-min Rain = 0
KWE2 231701Z 30011KT 19/M02 A3007 RMK A01 T01861018  RH  025%=      5-min Rain = 0
KWE2 231702Z 29009KT 19/M02 A3007 RMK A01 T01851022  RH  025%=      5-min Rain = 0
KWE2 231703Z 30010KT 18/M02 A3007 RMK A01 T01831023  RH  025%=      5-min Rain = 0
KWE2 231704Z 30012KT 18/M02 A3007 RMK A01 T01831024  RH  024%=      5-min Rain = 0
KWE2 231705Z 30012KT 18/M03 A3007 RMK A01 T01831025  RH  024%=      5-min Rain = 0
KWE2 231706Z 28010KT 18/M02 A3007 RMK A01 T01831024  RH  024%=      5-min Rain = 0
KWE2 231707Z 28009KT 18/M02 A3007 RMK A01 T01831024  RH  024%=      5-min Rain = 0
KWE2 231708Z 30009KT 18/M02 A3007 RMK A01 T01831023  RH  024%=      5-min Rain = 0
KWE2 231709Z 29007KT 18/M03 A3006 RMK A01 T01841025  RH  024%=      5-min Rain = 0
KWE2 231710Z 28007KT 18/M02 A3007 RMK A01 T01841023  RH  024%=      5-min Rain = 0
KWE2 231711Z 29008KT 19/M02 A3006 RMK A01 T01871024  RH  024%=      5-min Rain = 0
KWE2 231712Z 28011KT 19/M03 A3006 RMK A01 T01881025  RH  023%=      5-min Rain = 0
KWE2 231713Z 28011KT 19/M03 A3006 RMK A01 T01911029  RH  022%=      5-min Rain = 0
KWE2 231714Z 27009KT 19/M03 A3006 RMK A01 T01891030  RH  023%=      5-min Rain = 0
KWE2 231715Z 28010KT 19/M03 A3006 RMK A01 T01901028  RH  023%=      5-min Rain = 0
KWE2 231716Z 28009KT 19/M03 A3006 RMK A01 T01911026  RH  023%=      5-min Rain = 0
KWE2 231717Z 30010KT 19/M03 A3007 RMK A01 T01931027  RH  022%=      5-min Rain = 0
KWE2 231718Z 30009KT 19/M03 A3007 RMK A01 T01921029  RH  022%=      5-min Rain = 0
KWE2 231719Z 30011KT 19/M03 A3007 RMK A01 T01911030  RH  022%=      5-min Rain = 0
KWE2 231720Z 30013KT 19/M03 A3007 RMK A01 T01901029  RH  022%=      5-min Rain = 0
KWE2 231721Z 28010KT 19/M03 A3006 RMK A01 T01891030  RH  023%=      5-min Rain = 0
KWE2 231722Z 28013KT 19/M03 A3006 RMK A01 T01881031  RH  022%=      5-min Rain = 0
KWE2 231723Z 28013KT 19/M03 A3006 RMK A01 T01901031  RH  022%=      5-min Rain = 0
KWE2 231724Z 27012KT 19/M03 A3007 RMK A01 T01921030  RH  022%=      5-min Rain = 0
KWE2 231725Z 27014KT 19/M03 A3006 RMK A01 T01931031  RH  022%=      5-min Rain = 0
KWE2 231726Z 27013KT 19/M03 A3006 RMK A01 T01941032  RH  021%=      5-min Rain = 0
KWE2 231727Z 26013KT 19/M03 A3006 RMK A01 T01931031  RH  022%=      5-min Rain = 0
KWE2 231728Z 28012KT 19/M03 A3007 RMK A01 T01941030  RH  022%=      5-min Rain = 0
KWE2 231729Z 27009KT 19/M03 A3007 RMK A01 T01941030  RH  022%=      5-min Rain = 0
KWE2 231730Z 28007KT 19/M03 A3006 RMK A01 T01921032  RH  022%=      5-min Rain = 0
KWE2 231731Z 28007KT 19/M03 A3006 RMK A01 T01911030  RH  022%=      5-min Rain = 0
KWE2 231732Z 27007KT 19/M03 A3006 RMK A01 T01901032  RH  022%=      5-min Rain = 0
KWE2 231733Z 29007KT 19/M03 A3006 RMK A01 T01891033  RH  022%=      5-min Rain = 0
KWE2 231734Z 29012G17KT 19/M03 A3006 RMK A01 T01921028  RH  022%=      5-min Rain = 0
KWE2 231735Z 28010KT 20/M03 A3006 RMK A01 T01951033  RH  021%=      5-min Rain = 0
KWE2 231736Z 27009KT 19/M03 A3006 RMK A01 T01931033  RH  021%=      5-min Rain = 0
KWE2 231737Z 28011KT 19/M03 A3006 RMK A01 T01931031  RH  022%=      5-min Rain = 0
KWE2 231738Z 27009KT 20/M03 A3006 RMK A01 T01951030  RH  022%=      5-min Rain = 0
KWE2 231739Z 30010KT 20/M03 A3006 RMK A01 T01951028  RH  022%=      5-min Rain = 0
KWE2 231740Z 31015KT 20/M03 A3006 RMK A01 T01971032  RH  021%=      5-min Rain = 0
KWE2 231741Z 31012KT 20/M03 A3006 RMK A01 T01971032  RH  021%=      5-min Rain = 0
KWE2 231742Z 31011KT 20/M03 A3006 RMK A01 T01971031  RH  021%=      5-min Rain = 0
KWE2 231743Z 31013KT 20/M03 A3005 RMK A01 T01981031  RH  021%=      5-min Rain = 0
KWE2 231744Z 29014KT 20/M03 A3005 RMK A01 T01991031  RH  021%=      5-min Rain = 0
KWE2 231745Z 29014KT 20/M03 A3005 RMK A01 T01991032  RH  021%=      5-min Rain = 0
KWE2 231746Z 28013KT 20/M03 A3005 RMK A01 T01991031  RH  021%=      5-min Rain = 0
KWE2 231747Z 27010KT 20/M03 A3006 RMK A01 T01981033  RH  021%=      5-min Rain = 0
KWE2 231748Z 26009KT 20/M03 A3005 RMK A01 T01971030  RH  021%=      5-min Rain = 0
KWE2 231749Z 28006KT 20/M03 A3005 RMK A01 T01961034  RH  021%=      5-min Rain = 0
KWE2 231750Z 30008KT 19/M03 A3005 RMK A01 T01931033  RH  021%=      5-min Rain = 0
KWE2 231751Z 28009KT 20/M03 A3005 RMK A01 T01951032  RH  021%=      5-min Rain = 0
KWE2 231752Z 25009KT 20/M03 A3005 RMK A01 T01991028  RH  022%=      5-min Rain = 0
KWE2 231753Z 27010KT 20/M03 A3005 RMK A01 T02011028  RH  021%=      5-min Rain = 0
KWE2 231754Z 26014KT 20/M03 A3005 RMK A01 T02011030  RH  021%=      5-min Rain = 0
KWE2 231755Z 27011KT 20/M03 A3005 RMK A01 T02011032  RH  021%=      5-min Rain = 0
KWE2 231756Z 28010G15KT 20/M03 A3005 RMK A01 T02021031  RH  021%=      5-min Rain = 0
KWE2 231757Z 29014KT 20/M03 A3005 RMK A01 T02031032  RH  020%=      5-min Rain = 0
KWE2 231758Z 29011KT 20/M03 A3005 RMK A01 T02031031  RH  020%=      5-min Rain = 0
KWE2 231759Z 29008KT 20/M04 A3005 RMK A01 T02011035  RH  020%=      5-min Rain = 0
KWE2 231800Z 28008KT 20/M04 A3005 RMK A01 T01961037  RH  020%=      5-min Rain = 0
KWE2 231801Z 30006KT 20/M04 A3005 RMK A01 T01951035  RH  021%=      5-min Rain = 0
KWE2 231802Z 30006KT 20/M04 A3005 RMK A01 T01951035  RH  021%=      5-min Rain = 0
KWE2 231803Z 31007KT 20/M04 A3005 RMK A01 T01951035  RH  021%=      5-min Rain = 0
KWE2 231804Z 30009KT 20/M04 A3004 RMK A01 T01961035  RH  021%=      5-min Rain = 0
KWE2 231805Z 27008G13KT 20/M03 A3005 RMK A01 T01961034  RH  021%=      5-min Rain = 0
KWE2 231806Z 26012G17KT 20/M04 A3004 RMK A01 T01981035  RH  020%=      5-min Rain = 0
KWE2 231807Z 27012KT 20/M03 A3004 RMK A01 T02011034  RH  020%=      5-min Rain = 0
KWE2 231808Z 27010KT 21/M03 A3004 RMK A01 T02051032  RH  020%=      5-min Rain = 0
KWE2 231809Z 27011KT 21/M03 A3004 RMK A01 T02081030  RH  020%=      5-min Rain = 0
KWE2 231810Z 26012KT 21/M04 A3004 RMK A01 T02071036  RH  019%=      5-min Rain = 0
KWE2 231811Z 25011KT 20/M04 A3004 RMK A01 T02041036  RH  020%=      5-min Rain = 0
KWE2 231812Z 26009KT 20/M04 A3004 RMK A01 T02031036  RH  020%=      5-min Rain = 0
KWE2 231813Z 28011KT 20/M04 A3004 RMK A01 T02031035  RH  020%=      5-min Rain = 0
KWE2 231814Z 29013KT 21/M04 A3004 RMK A01 T02051035  RH  020%=      5-min Rain = 0
KWE2 231815Z 28009KT 21/M04 A3004 RMK A01 T02051037  RH  019%=      5-min Rain = 0
KWE2 231816Z 28010KT 20/M04 A3004 RMK A01 T02031037  RH  020%=      5-min Rain = 0
KWE2 231817Z 28012G20KT 20/M04 A3004 RMK A01 T02011038  RH  020%=      5-min Rain = 0
KWE2 231818Z 27017KT 20/M03 A3004 RMK A01 T02041032  RH  020%=      5-min Rain = 0
KWE2 231819Z 27013KT 21/M04 A3004 RMK A01 T02061035  RH  020%=      5-min Rain = 0
KWE2 231820Z 28010KT 20/M04 A3004 RMK A01 T02031037  RH  020%=      5-min Rain = 0
KWE2 231821Z 30010G15KT 20/M03 A3004 RMK A01 T02011034  RH  020%=      5-min Rain = 0
KWE2 231822Z 27017G23KT 20/M03 A3004 RMK A01 T02041032  RH  020%=      5-min Rain = 0
KWE2 231823Z 25012KT 20/M03 A3004 RMK A01 T02041034  RH  020%=      5-min Rain = 0
KWE2 231824Z 28014G19KT 20/M03 A3004 RMK A01 T02041030  RH  020%=      5-min Rain = 0
KWE2 231825Z 29015KT 21/M03 A3004 RMK A01 T02081033  RH  020%=      5-min Rain = 0
KWE2 231826Z 28013KT 21/M04 A3004 RMK A01 T02071036  RH  019%=      5-min Rain = 0
KWE2 231827Z 29012KT 20/M04 A3004 RMK A01 T02041036  RH  020%=      5-min Rain = 0
KWE2 231828Z 30010KT 20/M04 A3004 RMK A01 T02021035  RH  020%=      5-min Rain = 0
KWE2 231829Z 29009KT 20/M04 A3004 RMK A01 T02031036  RH  020%=      5-min Rain = 0
KWE2 231830Z 28008KT 20/M04 A3004 RMK A01 T02011036  RH  020%=      5-min Rain = 0
KWE2 231831Z 30013KT 20/M03 A3003 RMK A01 T02021034  RH  020%=      5-min Rain = 0
KWE2 231832Z 29014KT 21/M03 A3003 RMK A01 T02061033  RH  020%=      5-min Rain = 0
KWE2 231833Z 28012KT 21/M03 A3003 RMK A01 T02091033  RH  019%=      5-min Rain = 0
KWE2 231834Z 28017KT 21/M03 A3003 RMK A01 T02101034  RH  019%=      5-min Rain = 0
KWE2 231835Z 28014KT 21/M04 A3003 RMK A01 T02111037  RH  019%=      5-min Rain = 0
KWE2 231836Z 26009KT 21/M04 A3003 RMK A01 T02101038  RH  019%=      5-min Rain = 0
KWE2 231837Z 26011KT 21/M03 A3003 RMK A01 T02101034  RH  019%=      5-min Rain = 0
KWE2 231838Z 26014KT 21/M03 A3003 RMK A01 T02121033  RH  019%=      5-min Rain = 0
KWE2 231839Z 25014KT 21/M04 A3003 RMK A01 T02131035  RH  019%=      5-min Rain = 0
KWE2 231840Z 26012KT 21/M04 A3003 RMK A01 T02111035  RH  019%=      5-min Rain = 0
KWE2 231841Z 25011KT 21/M03 A3003 RMK A01 T02121033  RH  019%=      5-min Rain = 0
KWE2 231842Z 26013KT 21/M03 A3003 RMK A01 T02121033  RH  019%=      5-min Rain = 0
KWE2 231843Z 27014KT 21/M03 A3003 RMK A01 T02141034  RH  019%=      5-min Rain = 0
KWE2 231844Z 28014KT 21/M04 A3003 RMK A01 T02141036  RH  018%=      5-min Rain = 0
KWE2 231845Z 28014KT 22/M04 A3003 RMK A01 T02151038  RH  018%=      5-min Rain = 0
KWE2 231846Z 28014KT 21/M04 A3003 RMK A01 T02141037  RH  018%=      5-min Rain = 0
KWE2 231847Z 27013KT 21/M04 A3003 RMK A01 T02121037  RH  018%=      5-min Rain = 0
KWE2 231848Z 28014KT 21/M04 A3003 RMK A01 T02111036  RH  019%=      5-min Rain = 0
KWE2 231849Z 26013G19KT 21/M04 A3003 RMK A01 T02121035  RH  019%=      5-min Rain = 0
KWE2 231850Z 26013KT 22/M04 A3003 RMK A01 T02151036  RH  018%=      5-min Rain = 0
KWE2 231851Z 28012KT 22/M03 A3003 RMK A01 T02161034  RH  018%=      5-min Rain = 0
KWE2 231852Z 28013KT 22/M03 A3003 RMK A01 T02151034  RH  019%=      5-min Rain = 0
KWE2 231853Z 27011KT 22/M03 A3003 RMK A01 T02151033  RH  019%=      5-min Rain = 0
KWE2 231854Z 25011KT 22/M03 A3003 RMK A01 T02151033  RH  019%=      5-min Rain = 0
KWE2 231855Z 24013G18KT 22/M03 A3003 RMK A01 T02161032  RH  019%=      5-min Rain = 0
KWE2 231856Z 26013KT 22/M04 A3003 RMK A01 T02161035  RH  018%=      5-min Rain = 0
KWE2 231857Z 27011KT 22/M03 A3003 RMK A01 T02161034  RH  018%=      5-min Rain = 0
KWE2 231858Z 29014KT 22/M03 A3003 RMK A01 T02171033  RH  019%=      5-min Rain = 0
KWE2 231859Z 28013KT 22/M04 A3003 RMK A01 T02191035  RH  018%=      5-min Rain = 0
KWE2 231900Z 27010KT 22/M04 A3003 RMK A01 T02171038  RH  018%=      5-min Rain = 0
KWE2 231901Z 24010KT 21/M04 A3003 RMK A01 T02141035  RH  019%=      5-min Rain = 0
KWE2 231902Z 24012KT 21/M03 A3003 RMK A01 T02131033  RH  019%=      5-min Rain = 0
KWE2 231903Z 24014KT 21/M03 A3003 RMK A01 T02131032  RH  019%=      5-min Rain = 0
KWE2 231904Z 24015G20KT 21/M03 A3003 RMK A01 T02131033  RH  019%=      5-min Rain = 0
KWE2 231905Z 24013G18KT 21/M03 A3002 RMK A01 T02131032  RH  019%=      5-min Rain = 0
KWE2 231906Z 24018KT 22/M03 A3002 RMK A01 T02161028  RH  019%=      5-min Rain = 0
KWE2 231907Z 25014KT 22/M03 A3002 RMK A01 T02171034  RH  018%=      5-min Rain = 0
KWE2 231908Z 23012KT 22/M03 A3002 RMK A01 T02151031  RH  019%=      5-min Rain = 0
KWE2 231909Z 25011G17KT 21/M03 A3002 RMK A01 T02141029  RH  019%=      5-min Rain = 0
KWE2 231910Z 26015KT 22/M03 A3002 RMK A01 T02191025  RH  019%=      5-min Rain = 0
KWE2 231911Z 28011KT 22/M03 A3002 RMK A01 T02221029  RH  018%=      5-min Rain = 0
KWE2 231912Z 26015G22KT 22/M03 A3002 RMK A01 T02201030  RH  019%=      5-min Rain = 0
KWE2 231913Z 26014G19KT 22/M04 A3002 RMK A01 T02181035  RH  018%=      5-min Rain = 0
KWE2 231914Z 25014KT 22/M03 A3002 RMK A01 T02181032  RH  019%=      5-min Rain = 0
KWE2 231915Z 23013KT 22/M03 A3002 RMK A01 T02171029  RH  019%=      5-min Rain = 0
KWE2 231916Z 23012KT 22/M03 A3002 RMK A01 T02161029  RH  019%=      5-min Rain = 0
KWE2 231917Z 25016KT 21/M03 A3002 RMK A01 T02141028  RH  020%=      5-min Rain = 0
KWE2 231918Z 25014G19KT 22/M03 A3002 RMK A01 T02171032  RH  019%=      5-min Rain = 0
KWE2 231919Z 24014KT 22/M03 A3002 RMK A01 T02171033  RH  018%=      5-min Rain = 0
KWE2 231920Z 25019KT 22/M03 A3002 RMK A01 T02211033  RH  018%=      5-min Rain = 0
KWE2 231921Z 26018KT 22/M04 A3002 RMK A01 T02241038  RH  017%=      5-min Rain = 0
KWE2 231922Z 25019KT 22/M04 A3002 RMK A01 T02221037  RH  017%=      5-min Rain = 0
KWE2 231923Z 25018KT 22/M04 A3002 RMK A01 T02231036  RH  018%=      5-min Rain = 0
KWE2 231924Z 25014KT 23/M04 A3002 RMK A01 T02251035  RH  017%=      5-min Rain = 0
KWE2 231925Z 25014KT 22/M04 A3002 RMK A01 T02241037  RH  017%=      5-min Rain = 0
KWE2 231926Z 25013G19KT 22/M04 A3002 RMK A01 T02221037  RH  017%=      5-min Rain = 0
KWE2 231927Z 25015KT 22/M04 A3002 RMK A01 T02231039  RH  017%=      5-min Rain = 0
KWE2 231928Z 24015KT 22/M04 A3002 RMK A01 T02221039  RH  017%=      5-min Rain = 0
KWE2 231929Z 24017KT 22/M04 A3001 RMK A01 T02221041  RH  017%=      5-min Rain = 0
KWE2 231930Z 25019KT 22/M04 A3001 RMK A01 T02211041  RH  017%=      5-min Rain = 0
KWE2 231931Z 26018KT 22/M04 A3001 RMK A01 T02201043  RH  017%=      5-min Rain = 0
KWE2 231932Z 26019G26KT 22/M04 A3002 RMK A01 T02191043  RH  017%=      5-min Rain = 0
KWE2 231933Z 26017KT 22/M05 A3002 RMK A01 T02171046  RH  017%=      5-min Rain = 0
KWE2 231934Z 26016KT 22/M04 A3002 RMK A01 T02181044  RH  017%=      5-min Rain = 0
KWE2 231935Z 26015KT 22/M04 A3002 RMK A01 T02241041  RH  017%=      5-min Rain = 0
KWE2 231936Z 27016KT 23/M04 A3002 RMK A01 T02271043  RH  016%=      5-min Rain = 0
KWE2 231937Z 27013KT 23/M04 A3002 RMK A01 T02271042  RH  016%=      5-min Rain = 0
KWE2 231938Z 28016KT 23/M04 A3001 RMK A01 T02271041  RH  016%=      5-min Rain = 0
KWE2 231939Z 26014KT 23/M04 A3001 RMK A01 T02251044  RH  016%=      5-min Rain = 0
KWE2 231940Z 25014KT 22/M04 A3001 RMK A01 T02211044  RH  017%=      5-min Rain = 0
KWE2 231941Z 26014KT 22/M04 A3001 RMK A01 T02191044  RH  017%=      5-min Rain = 0
KWE2 231942Z 25019KT 22/M04 A3001 RMK A01 T02211044  RH  017%=      5-min Rain = 0
KWE2 231943Z 26023G30KT 22/M05 A3001 RMK A01 T02211047  RH  016%=      5-min Rain = 0
KWE2 231944Z 25022KT 22/M05 A3001 RMK A01 T02221047  RH  016%=      5-min Rain = 0
KWE2 231945Z 26020KT 22/M05 A3001 RMK A01 T02211049  RH  016%=      5-min Rain = 0
KWE2 231946Z 25018KT 22/M05 A3001 RMK A01 T02211046  RH  016%=      5-min Rain = 0
KWE2 231947Z 26014KT 22/M05 A3001 RMK A01 T02211045  RH  016%=      5-min Rain = 0
KWE2 231948Z 26016KT 22/M05 A3001 RMK A01 T02201046  RH  016%=      5-min Rain = 0
KWE2 231949Z 27017KT 22/M05 A3001 RMK A01 T02221046  RH  016%=      5-min Rain = 0
KWE2 231950Z 26017KT 22/M04 A3001 RMK A01 T02241043  RH  016%=      5-min Rain = 0
KWE2 231951Z 26018KT 22/M05 A3001 RMK A01 T02231045  RH  016%=      5-min Rain = 0
KWE2 231952Z 26016KT 22/M04 A3001 RMK A01 T02221044  RH  017%=      5-min Rain = 0
KWE2 231953Z 24018KT 22/M04 A3001 RMK A01 T02231042  RH  017%=      5-min Rain = 0
KWE2 231954Z 24018KT 23/M04 A3001 RMK A01 T02261042  RH  016%=      5-min Rain = 0
KWE2 231955Z 24018KT 23/M04 A3001 RMK A01 T02271042  RH  016%=      5-min Rain = 0
KWE2 231956Z 24018KT 23/M04 A3001 RMK A01 T02281044  RH  016%=      5-min Rain = 0
KWE2 231957Z 26020KT 23/M04 A3001 RMK A01 T02281043  RH  016%=      5-min Rain = 0
KWE2 231958Z 27021KT 23/M04 A3001 RMK A01 T02291044  RH  016%=      5-min Rain = 0
KWE2 231959Z 27021G26KT 23/M05 A3001 RMK A01 T02271046  RH  016%=      5-min Rain = 0
KWE2 232000Z 28018KT 23/M05 A3001 RMK A01 T02261045  RH  016%=      5-min Rain = 0
KWE2 232001Z 28018KT 23/M05 A3001 RMK A01 T02261045  RH  016%=      5-min Rain = 0
KWE2 232002Z 27013KT 23/M05 A3001 RMK A01 T02261045  RH  016%=      5-min Rain = 0
KWE2 232003Z 26014KT 23/M04 A3001 RMK A01 T02271041  RH  016%=      5-min Rain = 0
KWE2 232004Z 26016KT 23/M04 A3001 RMK A01 T02271043  RH  016%=      5-min Rain = 0
KWE2 232005Z 27019KT 23/M05 A3001 RMK A01 T02251046  RH  016%=      5-min Rain = 0
KWE2 232006Z 28017KT 22/M05 A3001 RMK A01 T02231048  RH  016%=      5-min Rain = 0
KWE2 232007Z 27022KT 23/M05 A3001 RMK A01 T02251050  RH  015%=      5-min Rain = 0
KWE2 232008Z 27018G24KT 23/M05 A3001 RMK A01 T02251050  RH  015%=      5-min Rain = 0
KWE2 232009Z 27020KT 22/M05 A3001 RMK A01 T02241051  RH  015%=      5-min Rain = 0
KWE2 232010Z 28019KT 22/M05 A3001 RMK A01 T02211053  RH  016%=      5-min Rain = 0
KWE2 232011Z 29017KT 22/M05 A3001 RMK A01 T02201048  RH  016%=      5-min Rain = 0
KWE2 232012Z 28019KT 22/M05 A3001 RMK A01 T02201047  RH  016%=      5-min Rain = 0
KWE2 232013Z 28020KT 22/M05 A3001 RMK A01 T02201047  RH  016%=      5-min Rain = 0
KWE2 232014Z 27018KT 22/M05 A3001 RMK A01 T02221050  RH  016%=      5-min Rain = 0
KWE2 232015Z 27016KT 22/M05 A3001 RMK A01 T02211052  RH  016%=      5-min Rain = 0
KWE2 232016Z 27016KT 22/M05 A3001 RMK A01 T02211051  RH  016%=      5-min Rain = 0
KWE2 232017Z 28016KT 22/M05 A3001 RMK A01 T02201051  RH  016%=      5-min Rain = 0
KWE2 232018Z 28015KT 22/M05 A3001 RMK A01 T02181046  RH  017%=      5-min Rain = 0
KWE2 232019Z 28013KT 22/M05 A3001 RMK A01 T02181045  RH  017%=      5-min Rain = 0
KWE2 232020Z 27013KT 22/M04 A3001 RMK A01 T02181043  RH  017%=      5-min Rain = 0
KWE2 232021Z 25015G20KT 22/M04 A3001 RMK A01 T02171042  RH  017%=      5-min Rain = 0
KWE2 232022Z 26016KT 22/M04 A3001 RMK A01 T02191042  RH  017%=      5-min Rain = 0
KWE2 232023Z 25017KT 22/M05 A3001 RMK A01 T02191045  RH  017%=      5-min Rain = 0
KWE2 232024Z 27016KT 22/M05 A3001 RMK A01 T02191047  RH  016%=      5-min Rain = 0
KWE2 232025Z 27014KT 22/M05 A3001 RMK A01 T02171046  RH  017%=      5-min Rain = 0
KWE2 232026Z 28014KT 22/M04 A3001 RMK A01 T02181043  RH  017%=      5-min Rain = 0
KWE2 232027Z 27014KT 22/M04 A30 RMK A01 T02181041  RH  017%=      5-min Rain = 0
KWE2 232028Z 27013KT 22/M04 A30 RMK A01 T02201040  RH  017%=      5-min Rain = 0
KWE2 232029Z 26011KT 22/M04 A30 RMK A01 T02191043  RH  017%=      5-min Rain = 0
KWE2 232030Z 28012KT 22/M04 A30 RMK A01 T02191040  RH  017%=      5-min Rain = 0
KWE2 232031Z 28010KT 22/M04 A30 RMK A01 T02201042  RH  017%=      5-min Rain = 0
KWE2 232032Z 27013G21KT 22/M04 A30 RMK A01 T02211040  RH  017%=      5-min Rain = 0
KWE2 232033Z 27018KT 22/M04 A30 RMK A01 T02231043  RH  017%=      5-min Rain = 0
KWE2 232034Z 27019KT 22/M04 A30 RMK A01 T02241044  RH  016%=      5-min Rain = 0
KWE2 232035Z 28014KT 22/M05 A30 RMK A01 T02231045  RH  016%=      5-min Rain = 0
KWE2 232036Z 29017G22KT 22/M05 A30 RMK A01 T02221045  RH  016%=      5-min Rain = 0
KWE2 232037Z 28019KT 22/M05 A30 RMK A01 T02241045  RH  016%=      5-min Rain = 0
KWE2 232038Z 26018KT 23/M05 A30 RMK A01 T02271047  RH  016%=      5-min Rain = 0
KWE2 232039Z 26017G22KT 23/M05 A30 RMK A01 T02281048  RH  015%=      5-min Rain = 0
KWE2 232040Z 25014KT 23/M05 A30 RMK A01 T02281046  RH  016%=      5-min Rain = 0
KWE2 232041Z 26013KT 23/M04 A30 RMK A01 T02311043  RH  016%=      5-min Rain = 0
KWE2 232042Z 26012KT 23/M04 A30 RMK A01 T02311043  RH  016%=      5-min Rain = 0
KWE2 232043Z 26020KT 23/M05 A30 RMK A01 T02311049  RH  015%=      5-min Rain = 0
KWE2 232044Z 27016KT 23/M06 A30 RMK A01 T02301055  RH  015%=      5-min Rain = 0
KWE2 232045Z 26016KT 23/M06 A30 RMK A01 T02301057  RH  014%=      5-min Rain = 0
KWE2 232046Z 27015KT 23/M06 A30 RMK A01 T02291057  RH  014%=      5-min Rain = 0
KWE2 232047Z 28013KT 23/M05 A30 RMK A01 T02311054  RH  014%=      5-min Rain = 0
KWE2 232048Z 28011KT 23/M06 A30 RMK A01 T02311057  RH  014%=      5-min Rain = 0
KWE2 232049Z 25015KT 23/M06 A30 RMK A01 T02281055  RH  015%=      5-min Rain = 0
KWE2 232050Z 26014KT 23/M05 A2999 RMK A01 T02271054  RH  015%=      5-min Rain = 0
KWE2 232051Z 26015KT 22/M06 A2999 RMK A01 T02241056  RH  015%=      5-min Rain = 0
KWE2 232052Z 26013G18KT 22/M05 A2999 RMK A01 T02231053  RH  015%=      5-min Rain = 0
KWE2 232053Z 26015KT 23/M05 A2999 RMK A01 T02261053  RH  015%=      5-min Rain = 0
KWE2 232054Z 27015KT 23/M05 A2999 RMK A01 T02281053  RH  015%=      5-min Rain = 0
KWE2 232055Z 28018KT 23/M05 A2999 RMK A01 T02281054  RH  015%=      5-min Rain = 0
KWE2 232056Z 29018KT 23/M06 A2999 RMK A01 T02281057  RH  014%=      5-min Rain = 0
KWE2 232057Z 29016KT 23/M06 A2999 RMK A01 T02261058  RH  015%=      5-min Rain = 0
KWE2 232058Z 27013KT 23/M06 A2999 RMK A01 T02251058  RH  015%=      5-min Rain = 0
KWE2 232059Z 25013KT 23/M05 A2999 RMK A01 T02281053  RH  015%=      5-min Rain = 0
KWE2 232100Z 26016KT 23/M05 A2999 RMK A01 T02311053  RH  015%=      5-min Rain = 0
KWE2 232101Z 26014KT 23/M06 A2999 RMK A01 T02301055  RH  014%=      5-min Rain = 0
KWE2 232102Z 25013KT 23/M06 A2999 RMK A01 T02301055  RH  014%=      5-min Rain = 0
KWE2 232103Z 25013KT 23/M05 A2999 RMK A01 T02311052  RH  015%=      5-min Rain = 0
KWE2 232104Z 26015KT 23/M05 A2999 RMK A01 T02321052  RH  015%=      5-min Rain = 0
KWE2 232105Z 27017KT 23/M05 A2999 RMK A01 T02341053  RH  014%=      5-min Rain = 0
KWE2 232106Z 28016KT 23/M05 A2999 RMK A01 T02331054  RH  014%=      5-min Rain = 0
KWE2 232107Z 27013KT 23/M06 A2999 RMK A01 T02301057  RH  014%=      5-min Rain = 0
KWE2 232108Z 28017G23KT 23/M05 A2999 RMK A01 T02281054  RH  015%=      5-min Rain = 0
KWE2 232109Z 27021KT 23/M05 A2999 RMK A01 T02281054  RH  015%=      5-min Rain = 0
KWE2 232110Z 26019KT 23/M06 A2999 RMK A01 T02281056  RH  015%=      5-min Rain = 0
KWE2 232111Z 26016KT 23/M06 A2999 RMK A01 T02261059  RH  014%=      5-min Rain = 0
KWE2 232112Z 27011KT 23/M06 A2999 RMK A01 T02251060  RH  014%=      5-min Rain = 0
KWE2 232113Z 26010KT 23/M06 A2999 RMK A01 T02261057  RH  015%=      5-min Rain = 0
KWE2 232114Z 25011KT 23/M06 A2999 RMK A01 T02291056  RH  014%=      5-min Rain = 0
KWE2 232115Z 25012KT 23/M06 A2999 RMK A01 T02301057  RH  014%=      5-min Rain = 0
KWE2 232116Z 24013KT 23/M06 A2999 RMK A01 T02321058  RH  014%=      5-min Rain = 0
KWE2 232117Z 24015KT 23/M06 A2999 RMK A01 T02311060  RH  014%=      5-min Rain = 0
KWE2 232118Z 23014KT 23/M06 A2999 RMK A01 T02311062  RH  014%=      5-min Rain = 0
KWE2 232119Z 24015KT 23/M06 A2999 RMK A01 T02341057  RH  014%=      5-min Rain = 0
KWE2 232120Z 24019KT 24/M06 A2999 RMK A01 T02391057  RH  013%=      5-min Rain = 0
KWE2 232121Z 24015KT 24/M06 A2999 RMK A01 T02371057  RH  014%=      5-min Rain = 0
KWE2 232122Z 25017KT 24/M06 A2999 RMK A01 T02371059  RH  014%=      5-min Rain = 0
KWE2 232123Z 25018KT 23/M06 A2999 RMK A01 T02341062  RH  013%=      5-min Rain = 0
KWE2 232124Z 25011KT 23/M06 A2999 RMK A01 T02291062  RH  014%=      5-min Rain = 0
KWE2 232125Z 24012KT 23/M06 A2999 RMK A01 T02291059  RH  014%=      5-min Rain = 0
KWE2 232126Z 23013KT 23/M06 A2999 RMK A01 T02301059  RH  014%=      5-min Rain = 0
KWE2 232127Z 24012KT 23/M06 A2999 RMK A01 T02291059  RH  014%=      5-min Rain = 0
KWE2 232128Z 26008KT 23/M06 A2999 RMK A01 T02281059  RH  014%=      5-min Rain = 0
KWE2 232129Z 26014KT 23/M06 A2999 RMK A01 T02281057  RH  014%=      5-min Rain = 0
KWE2 232130Z 26015KT 23/M07 A2999 RMK A01 T02291065  RH  013%=      5-min Rain = 0
KWE2 232131Z 28014KT 23/M07 A2999 RMK A01 T02271066  RH  014%=      5-min Rain = 0
KWE2 232132Z 28011KT 23/M06 A2999 RMK A01 T02271062  RH  014%=      5-min Rain = 0
KWE2 232133Z 27012KT 23/M06 A2998 RMK A01 T02281064  RH  014%=      5-min Rain = 0
KWE2 232134Z 27010KT 23/M06 A2998 RMK A01 T02271064  RH  014%=      5-min Rain = 0
KWE2 232135Z 24009G16KT 23/M06 A2998 RMK A01 T02261061  RH  014%=      5-min Rain = 0
KWE2 232136Z 22016KT 23/M06 A2998 RMK A01 T02291059  RH  014%=      5-min Rain = 0
KWE2 232137Z 23016KT 23/M06 A2998 RMK A01 T02301062  RH  014%=      5-min Rain = 0
KWE2 232138Z 23016KT 23/M06 A2998 RMK A01 T02331058  RH  014%=      5-min Rain = 0
KWE2 232139Z 24016KT 24/M06 A2998 RMK A01 T02371057  RH  014%=      5-min Rain = 0
KWE2 232140Z 25019KT 24/M06 A2998 RMK A01 T02381057  RH  014%=      5-min Rain = 0
KWE2 232141Z 25018KT 24/M06 A2998 RMK A01 T02371060  RH  013%=      5-min Rain = 0
KWE2 232142Z 24019KT 24/M06 A2998 RMK A01 T02351060  RH  014%=      5-min Rain = 0
KWE2 232143Z 23015KT 24/M06 A2998 RMK A01 T02361062  RH  013%=      5-min Rain = 0
KWE2 232144Z 22016KT 24/M06 A2998 RMK A01 T02351061  RH  013%=      5-min Rain = 0
KWE2 232145Z 23012KT 24/M06 A2998 RMK A01 T02351062  RH  013%=      5-min Rain = 0
KWE2 232146Z 24013KT 23/M06 A2998 RMK A01 T02341059  RH  014%=      5-min Rain = 0
KWE2 232147Z 24011KT 24/M06 A2998 RMK A01 T02351060  RH  013%=      5-min Rain = 0
KWE2 232148Z 24008KT 24/M06 A2998 RMK A01 T02351056  RH  014%=      5-min Rain = 0
KWE2 232149Z 24010KT 24/M06 A2998 RMK A01 T02371057  RH  014%=      5-min Rain = 0
KWE2 232150Z 23011KT 24/M06 A2998 RMK A01 T02371059  RH  013%=      5-min Rain = 0
KWE2 232151Z 25012G17KT 24/M06 A2998 RMK A01 T02381056  RH  014%=      5-min Rain = 0
KWE2 232152Z 22014KT 24/M06 A2998 RMK A01 T02401055  RH  014%=      5-min Rain = 0
KWE2 232153Z 23014KT 24/M06 A2998 RMK A01 T02381061  RH  013%=      5-min Rain = 0
KWE2 232154Z 23012KT 24/M06 A2998 RMK A01 T02361059  RH  014%=      5-min Rain = 0
KWE2 232155Z 22018KT 24/M06 A2997 RMK A01 T02361059  RH  014%=      5-min Rain = 0
KWE2 232156Z 23019G25KT 24/M06 A2997 RMK A01 T02371064  RH  013%=      5-min Rain = 0
KWE2 232157Z 24014KT 24/M06 A2998 RMK A01 T02351063  RH  013%=      5-min Rain = 0
KWE2 232158Z 24015KT 24/M06 A2998 RMK A01 T02381058  RH  013%=      5-min Rain = 0
KWE2 232159Z 25015KT 24/M06 A2998 RMK A01 T02391057  RH  013%=      5-min Rain = 0
KWE2 232200Z 27011KT 24/M07 A2998 RMK A01 T02371066  RH  013%=      5-min Rain = 0
KWE2 232201Z 25012G17KT 24/M07 A2998 RMK A01 T02351066  RH  013%=      5-min Rain = 0
KWE2 232202Z 26013KT 24/M07 A2998 RMK A01 T02361065  RH  013%=      5-min Rain = 0
KWE2 232203Z 26013KT 24/M06 A2998 RMK A01 T02361063  RH  013%=      5-min Rain = 0
KWE2 232204Z 24012KT 24/M06 A2998 RMK A01 T02351061  RH  013%=      5-min Rain = 0
KWE2 232205Z 24014KT 24/M06 A2997 RMK A01 T02371059  RH  014%=      5-min Rain = 0
KWE2 232206Z 25017KT 24/M05 A2997 RMK A01 T02411054  RH  014%=      5-min Rain = 0
KWE2 232207Z 25014KT 24/M06 A2998 RMK A01 T02401058  RH  013%=      5-min Rain = 0
KWE2 232208Z 25013KT 24/M06 A2998 RMK A01 T02391055  RH  014%=      5-min Rain = 0
KWE2 232209Z 24016KT 24/M05 A2997 RMK A01 T02391052  RH  014%=      5-min Rain = 0
KWE2 232210Z 25015KT 24/M05 A2998 RMK A01 T02381053  RH  014%=      5-min Rain = 0
KWE2 232211Z 24016KT 24/M05 A2998 RMK A01 T02351053  RH  014%=      5-min Rain = 0
KWE2 232212Z 23014KT 23/M05 A2998 RMK A01 T02341054  RH  014%=      5-min Rain = 0
KWE2 232213Z 23014KT 23/M05 A2998 RMK A01 T02341052  RH  015%=      5-min Rain = 0
KWE2 232214Z 22015KT 24/M05 A2997 RMK A01 T02351052  RH  014%=      5-min Rain = 0
KWE2 232215Z 22011G17KT 23/M06 A2998 RMK A01 T02341055  RH  014%=      5-min Rain = 0
KWE2 232216Z 22010KT 23/M05 A2998 RMK A01 T02311053  RH  015%=      5-min Rain = 0
KWE2 232217Z 24011KT 23/M05 A2998 RMK A01 T02311053  RH  015%=      5-min Rain = 0
KWE2 232218Z 25012KT 23/M05 A2998 RMK A01 T02311053  RH  015%=      5-min Rain = 0
KWE2 232219Z 25010KT 23/M05 A2998 RMK A01 T02321053  RH  014%=      5-min Rain = 0
KWE2 232220Z 23016G21KT 23/M05 A2997 RMK A01 T02341052  RH  014%=      5-min Rain = 0
KWE2 232221Z 23019KT 24/M06 A2997 RMK A01 T02371056  RH  014%=      5-min Rain = 0
KWE2 232222Z 23015KT 24/M06 A2997 RMK A01 T02361057  RH  014%=      5-min Rain = 0
KWE2 232223Z 23014KT 24/M06 A2997 RMK A01 T02391055  RH  014%=      5-min Rain = 0
KWE2 232224Z 23015KT 24/M06 A2998 RMK A01 T02391058  RH  013%=      5-min Rain = 0
KWE2 232225Z 23016KT 24/M06 A2998 RMK A01 T02371058  RH  014%=      5-min Rain = 0
KWE2 232226Z 24016KT 24/M06 A2997 RMK A01 T02361058  RH  014%=      5-min Rain = 0
KWE2 232227Z 23020KT 24/M06 A2997 RMK A01 T02371059  RH  013%=      5-min Rain = 0
KWE2 232228Z 22015KT 24/M06 A2997 RMK A01 T02361062  RH  013%=      5-min Rain = 0
KWE2 232229Z 22016KT 23/M06 A2997 RMK A01 T02331063  RH  013%=      5-min Rain = 0
KWE2 232230Z 22017KT 23/M06 A2997 RMK A01 T02321062  RH  013%=      5-min Rain = 0
KWE2 232231Z 24016KT 23/M06 A2998 RMK A01 T02321062  RH  014%=      5-min Rain = 0
KWE2 232232Z 25012KT 23/M07 A2998 RMK A01 T02321066  RH  013%=      5-min Rain = 0
KWE2 232233Z 26013KT 23/M07 A2998 RMK A01 T02291067  RH  013%=      5-min Rain = 0
KWE2 232234Z 26013KT 23/M07 A2998 RMK A01 T02271066  RH  014%=      5-min Rain = 0
KWE2 232235Z 26012KT 23/M07 A2998 RMK A01 T02261068  RH  013%=      5-min Rain = 0
KWE2 232236Z 26014KT 23/M07 A2998 RMK A01 T02251068  RH  014%=      5-min Rain = 0
KWE2 232237Z 25017KT 23/M07 A2998 RMK A01 T02261065  RH  014%=      5-min Rain = 0
KWE2 232238Z 26018KT 23/M07 A2998 RMK A01 T02271067  RH  014%=      5-min Rain = 0
KWE2 232239Z 24017KT 23/M07 A2998 RMK A01 T02271067  RH  013%=      5-min Rain = 0
KWE2 232240Z 26017KT 23/M07 A2998 RMK A01 T02271069  RH  013%=      5-min Rain = 0
KWE2 232241Z 25015KT 23/M07 A2998 RMK A01 T02271069  RH  013%=      5-min Rain = 0
KWE2 232242Z 25015KT 23/M07 A2998 RMK A01 T02261071  RH  013%=      5-min Rain = 0
KWE2 232243Z 26016KT 23/M07 A2998 RMK A01 T02261073  RH  013%=      5-min Rain = 0
KWE2 232244Z 26015KT 23/M07 A2997 RMK A01 T02261074  RH  013%=      5-min Rain = 0
KWE2 232245Z 26016KT 23/M07 A2997 RMK A01 T02271074  RH  013%=      5-min Rain = 0
KWE2 232246Z 26013KT 23/M07 A2997 RMK A01 T02271074  RH  013%=      5-min Rain = 0
KWE2 232247Z 26014KT 23/M08 A2997 RMK A01 T02271075  RH  013%=      5-min Rain = 0
KWE2 232248Z 26013KT 23/M08 A2997 RMK A01 T02261076  RH  013%=      5-min Rain = 0
KWE2 232249Z 25013KT 23/M08 A2997 RMK A01 T02261079  RH  012%=      5-min Rain = 0
KWE2 232250Z 26014KT 23/M08 A2997 RMK A01 T02261079  RH  012%=      5-min Rain = 0
KWE2 232251Z 25014KT 23/M08 A2997 RMK A01 T02261077  RH  012%=      5-min Rain = 0
KWE2 232252Z 25013KT 23/M07 A2997 RMK A01 T02261073  RH  013%=      5-min Rain = 0
KWE2 232253Z 24013KT 23/M07 A2997 RMK A01 T02261074  RH  013%=      5-min Rain = 0
KWE2 232254Z 24013KT 23/M08 A2997 RMK A01 T02261075  RH  013%=      5-min Rain = 0
KWE2 232255Z 24013KT 23/M07 A2997 RMK A01 T02261074  RH  013%=      5-min Rain = 0
KWE2 232256Z 24014KT 23/M08 A2997 RMK A01 T02271075  RH  013%=      5-min Rain = 0
KWE2 232257Z 25012KT 23/M08 A2997 RMK A01 T02261075  RH  013%=      5-min Rain = 0
KWE2 232258Z 25012KT 23/M08 A2997 RMK A01 T02261075  RH  013%=      5-min Rain = 0
KWE2 232259Z 24012KT 23/M07 A2997 RMK A01 T02261071  RH  013%=      5-min Rain = 0
KWE2 232300Z 26012KT 23/M07 A2997 RMK A01 T02271072  RH  013%=      5-min Rain = 0
KWE2 232301Z 27012KT 23/M07 A2997 RMK A01 T02271071  RH  013%=      5-min Rain = 0
KWE2 232302Z 26015KT 23/M07 A2997 RMK A01 T02271073  RH  013%=      5-min Rain = 0
KWE2 232303Z 25016KT 23/M07 A2997 RMK A01 T02271074  RH  013%=      5-min Rain = 0
KWE2 232304Z 25014KT 23/M07 A2997 RMK A01 T02261072  RH  013%=      5-min Rain = 0
KWE2 232305Z 25014KT 23/M07 A2997 RMK A01 T02251072  RH  013%=      5-min Rain = 0
KWE2 232306Z 25015KT 22/M07 A2997 RMK A01 T02241073  RH  013%=      5-min Rain = 0
KWE2 232307Z 25014KT 22/M08 A2997 RMK A01 T02231075  RH  013%=      5-min Rain = 0
KWE2 232308Z 26013G18KT 22/M07 A2997 RMK A01 T02221073  RH  013%=      5-min Rain = 0
KWE2 232309Z 26016KT 22/M07 A2997 RMK A01 T02221073  RH  013%=      5-min Rain = 0
KWE2 232310Z 26013KT 22/M07 A2997 RMK A01 T02221073  RH  013%=      5-min Rain = 0
KWE2 232311Z 26015KT 22/M07 A2997 RMK A01 T02211073  RH  013%=      5-min Rain = 0
KWE2 232312Z 25013KT 22/M07 A2997 RMK A01 T02211070  RH  014%=      5-min Rain = 0
KWE2 232313Z 25015KT 22/M07 A2997 RMK A01 T02211074  RH  013%=      5-min Rain = 0
KWE2 232314Z 25014KT 22/M08 A2996 RMK A01 T02211076  RH  013%=      5-min Rain = 0
KWE2 232315Z 25013KT 22/M08 A2997 RMK A01 T02211076  RH  013%=      5-min Rain = 0
KWE2 232316Z 25013KT 22/M08 A2996 RMK A01 T02221079  RH  013%=      5-min Rain = 0
KWE2 232317Z 26013KT 22/M08 A2997 RMK A01 T02231077  RH  013%=      5-min Rain = 0
KWE2 232318Z 25013KT 22/M08 A2996 RMK A01 T02241078  RH  013%=      5-min Rain = 0
KWE2 232319Z 24012KT 22/M08 A2996 RMK A01 T02241077  RH  013%=      5-min Rain = 0
KWE2 232320Z 25012KT 23/M08 A2996 RMK A01 T02261075  RH  013%=      5-min Rain = 0
KWE2 232321Z 25013KT 23/M08 A2996 RMK A01 T02281079  RH  012%=      5-min Rain = 0
KWE2 232322Z 24015KT 23/M08 A2996 RMK A01 T02281078  RH  012%=      5-min Rain = 0
KWE2 232323Z 25013G19KT 23/M07 A2996 RMK A01 T02291074  RH  013%=      5-min Rain = 0
KWE2 232324Z 24014KT 23/M07 A2996 RMK A01 T02301074  RH  012%=      5-min Rain = 0
KWE2 232325Z 25016KT 23/M07 A2996 RMK A01 T02301074  RH  012%=      5-min Rain = 0
KWE2 232326Z 24014KT 23/M07 A2996 RMK A01 T02301073  RH  013%=      5-min Rain = 0
KWE2 232327Z 24017KT 23/M07 A2996 RMK A01 T02311070  RH  013%=      5-min Rain = 0
KWE2 232328Z 25014KT 23/M07 A2997 RMK A01 T02321072  RH  012%=      5-min Rain = 0
KWE2 232329Z 25014KT 23/M07 A2996 RMK A01 T02311073  RH  013%=      5-min Rain = 0
KWE2 232330Z 25014KT 23/M08 A2997 RMK A01 T02301075  RH  012%=      5-min Rain = 0
KWE2 232331Z 24011KT 23/M08 A2997 RMK A01 T02271077  RH  012%=      5-min Rain = 0
KWE2 232332Z 25012KT 23/M07 A2997 RMK A01 T02271073  RH  013%=      5-min Rain = 0
KWE2 232333Z 24013KT 23/M07 A2997 RMK A01 T02271074  RH  013%=      5-min Rain = 0
KWE2 232334Z 24012KT 23/M08 A2997 RMK A01 T02261075  RH  013%=      5-min Rain = 0
KWE2 232335Z 24013KT 23/M07 A2997 RMK A01 T02251074  RH  013%=      5-min Rain = 0
KWE2 232336Z 24013KT 22/M08 A2997 RMK A01 T02241075  RH  013%=      5-min Rain = 0
KWE2 232337Z 24012KT 22/M08 A2997 RMK A01 T02231076  RH  013%=      5-min Rain = 0
KWE2 232338Z 25011KT 22/M08 A2997 RMK A01 T02221075  RH  013%=      5-min Rain = 0
KWE2 232339Z 24014KT 22/M08 A2997 RMK A01 T02221075  RH  013%=      5-min Rain = 0
KWE2 232340Z 24012KT 22/M08 A2997 RMK A01 T02221078  RH  013%=      5-min Rain = 0
KWE2 232341Z 24011KT 22/M08 A2997 RMK A01 T02221078  RH  013%=      5-min Rain = 0
KWE2 232342Z 24009KT 22/M08 A2997 RMK A01 T02221076  RH  013%=      5-min Rain = 0
KWE2 232343Z 24007KT 22/M08 A2997 RMK A01 T02221075  RH  013%=      5-min Rain = 0
KWE2 232344Z 24009KT 22/M07 A2997 RMK A01 T02221073  RH  013%=      5-min Rain = 0
KWE2 232345Z 25011KT 22/M07 A2997 RMK A01 T02211071  RH  013%=      5-min Rain = 0
KWE2 232346Z 24010KT 22/M07 A2997 RMK A01 T02221073  RH  013%=      5-min Rain = 0
KWE2 232347Z 24010KT 22/M07 A2997 RMK A01 T02221072  RH  013%=      5-min Rain = 0
KWE2 232348Z 24011KT 22/M08 A2997 RMK A01 T02221075  RH  013%=      5-min Rain = 0
KWE2 232349Z 24011KT 22/M08 A2997 RMK A01 T02201076  RH  013%=      5-min Rain = 0
KWE2 232350Z 24011KT 22/M08 A2997 RMK A01 T02191075  RH  013%=      5-min Rain = 0
KWE2 232351Z 24008KT 22/M07 A2997 RMK A01 T02181074  RH  013%=      5-min Rain = 0
KWE2 232352Z 24008KT 22/M07 A2996 RMK A01 T02171073  RH  014%=      5-min Rain = 0
KWE2 232353Z 24009KT 22/M07 A2997 RMK A01 T02171074  RH  014%=      5-min Rain = 0
KWE2 232354Z 24012KT 22/M07 A2997 RMK A01 T02161073  RH  014%=      5-min Rain = 0
KWE2 232355Z 23012KT 22/M07 A2997 RMK A01 T02161074  RH  014%=      5-min Rain = 0
KWE2 232356Z 25011KT 22/M07 A2997 RMK A01 T02151074  RH  014%=      5-min Rain = 0
KWE2 232357Z 25010KT 21/M08 A2997 RMK A01 T02141075  RH  014%=      5-min Rain = 0
KWE2 232358Z 24010KT 21/M07 A2997 RMK A01 T02131073  RH  014%=      5-min Rain = 0
KWE2 232359Z 24010KT 21/M07 A2997 RMK A01 T02121073  RH  014%=      5-min Rain = 0
KWE2 240000Z 24011KT 21/M07 A2997 RMK A01 T02111074  RH  014%=      5-min Rain = 0
KWE2 240001Z 25010KT 21/M08 A2997 RMK A01 T02111076  RH  014%=      5-min Rain = 0
KWE2 240002Z 24011KT 21/M08 A2997 RMK A01 T02111077  RH  014%=      5-min Rain = 0
KWE2 240003Z 24012KT 21/M08 A2997 RMK A01 T02111078  RH  014%=      5-min Rain = 0
KWE2 240004Z 23012KT 21/M08 A2997 RMK A01 T02101079  RH  014%=      5-min Rain = 0
KWE2 240005Z 24012KT 21/M08 A2997 RMK A01 T02101080  RH  013%=      5-min Rain = 0
KWE2 240006Z 23011KT 21/M08 A2997 RMK A01 T02101080  RH  014%=      5-min Rain = 0
KWE2 240007Z 23011KT 21/M08 A2997 RMK A01 T02101078  RH  014%=      5-min Rain = 0
KWE2 240008Z 23010KT 21/M08 A2997 RMK A01 T02111080  RH  013%=      5-min Rain = 0
KWE2 240009Z 23011KT 21/M08 A2997 RMK A01 T02121079  RH  013%=      5-min Rain = 0
KWE2 240010Z 24012KT 21/M08 A2997 RMK A01 T02141077  RH  013%=      5-min Rain = 0
KWE2 240011Z 23013KT 22/M08 A2997 RMK A01 T02151076  RH  014%=      5-min Rain = 0
KWE2 240012Z 23013KT 22/M07 A2997 RMK A01 T02151074  RH  014%=      5-min Rain = 0
KWE2 240013Z 23011KT 22/M07 A2997 RMK A01 T02151074  RH  014%=      5-min Rain = 0
KWE2 240014Z 23010KT 22/M07 A2997 RMK A01 T02161072  RH  014%=      5-min Rain = 0
KWE2 240015Z 23010KT 22/M07 A2997 RMK A01 T02161071  RH  014%=      5-min Rain = 0
KWE2 240016Z 22009KT 22/M07 A2997 RMK A01 T02161068  RH  014%=      5-min Rain = 0
KWE2 240017Z 22010KT 22/M07 A2997 RMK A01 T02161068  RH  014%=      5-min Rain = 0
KWE2 240018Z 22009KT 22/M07 A2997 RMK A01 T02161067  RH  014%=      5-min Rain = 0
KWE2 240019Z 22009KT 22/M07 A2997 RMK A01 T02151066  RH  015%=      5-min Rain = 0
KWE2 240020Z 22009KT 22/M07 A2997 RMK A01 T02151065  RH  015%=      5-min Rain = 0
KWE2 240021Z 22009KT 22/M06 A2997 RMK A01 T02151064  RH  015%=      5-min Rain = 0
KWE2 240022Z 22009KT 22/M06 A2997 RMK A01 T02151064  RH  015%=      5-min Rain = 0
KWE2 240023Z 21008KT 22/M07 A2997 RMK A01 T02151065  RH  015%=      5-min Rain = 0
KWE2 240024Z 21008KT 22/M07 A2997 RMK A01 T02151065  RH  015%=      5-min Rain = 0
KWE2 240025Z 22010KT 22/M06 A2997 RMK A01 T02151064  RH  015%=      5-min Rain = 0
KWE2 240026Z 22008KT 22/M07 A2997 RMK A01 T02151066  RH  015%=      5-min Rain = 0
KWE2 240027Z 22009KT 22/M07 A2997 RMK A01 T02151065  RH  015%=      5-min Rain = 0
KWE2 240028Z 22008KT 22/M06 A2997 RMK A01 T02151063  RH  015%=      5-min Rain = 0
KWE2 240029Z 22008KT 22/M06 A2997 RMK A01 T02151059  RH  015%=      5-min Rain = 0
KWE2 240030Z 22008KT 22/M06 A2997 RMK A01 T02151060  RH  015%=      5-min Rain = 0
KWE2 240031Z 22009KT 21/M06 A2997 RMK A01 T02141062  RH  015%=      5-min Rain = 0
KWE2 240032Z 22009KT 21/M06 A2997 RMK A01 T02131063  RH  015%=      5-min Rain = 0
KWE2 240033Z 22011KT 21/M06 A2997 RMK A01 T02131062  RH  015%=      5-min Rain = 0
KWE2 240034Z 22010KT 21/M06 A2997 RMK A01 T02131063  RH  015%=      5-min Rain = 0
KWE2 240035Z 22009KT 21/M06 A2997 RMK A01 T02131062  RH  015%=      5-min Rain = 0
KWE2 240036Z 22009KT 21/M06 A2997 RMK A01 T02121062  RH  015%=      5-min Rain = 0
KWE2 240037Z 22008KT 21/M06 A2997 RMK A01 T02111061  RH  016%=      5-min Rain = 0
KWE2 240038Z 22009KT 21/M06 A2997 RMK A01 T02101060  RH  016%=      5-min Rain = 0
KWE2 240039Z 22008KT 21/M06 A2997 RMK A01 T02091061  RH  016%=      5-min Rain = 0
KWE2 240040Z 22008KT 21/M06 A2997 RMK A01 T02091060  RH  016%=      5-min Rain = 0
KWE2 240041Z 22008KT 21/M06 A2997 RMK A01 T02081060  RH  016%=      5-min Rain = 0
KWE2 240042Z 22008KT 21/M06 A2997 RMK A01 T02061059  RH  016%=      5-min Rain = 0
KWE2 240043Z 21007KT 20/M06 A2997 RMK A01 T02041060  RH  016%=      5-min Rain = 0
KWE2 240044Z 22007KT 20/M06 A2997 RMK A01 T02041059  RH  016%=      5-min Rain = 0
KWE2 240045Z 22008KT 20/M06 A2997 RMK A01 T02031060  RH  016%=      5-min Rain = 0
KWE2 240046Z 22007KT 20/M06 A2997 RMK A01 T02021060  RH  017%=      5-min Rain = 0
KWE2 240047Z 22007KT 20/M06 A2997 RMK A01 T02011059  RH  017%=      5-min Rain = 0
KWE2 240048Z 22008KT 20/M06 A2997 RMK A01 T01991060  RH  017%=      5-min Rain = 0
KWE2 240049Z 21008KT 20/M06 A2997 RMK A01 T01981059  RH  017%=      5-min Rain = 0
KWE2 240050Z 21010KT 20/M06 A2997 RMK A01 T01971061  RH  017%=      5-min Rain = 0
KWE2 240051Z 21009KT 20/M07 A2997 RMK A01 T01971065  RH  016%=      5-min Rain = 0
KWE2 240052Z 22009KT 20/M07 A2997 RMK A01 T01971067  RH  016%=      5-min Rain = 0
KWE2 240053Z 22009KT 20/M07 A2997 RMK A01 T01971067  RH  016%=      5-min Rain = 0
KWE2 240054Z 22009KT 20/M07 A2997 RMK A01 T01951066  RH  016%=      5-min Rain = 0
KWE2 240055Z 22009KT 19/M07 A2997 RMK A01 T01941066  RH  017%=      5-min Rain = 0
KWE2 240056Z 22009KT 19/M07 A2997 RMK A01 T01931065  RH  017%=      5-min Rain = 0
KWE2 240057Z 22008KT 19/M07 A2997 RMK A01 T01911065  RH  017%=      5-min Rain = 0
KWE2 240058Z 21008KT 19/M07 A2997 RMK A01 T01891065  RH  017%=      5-min Rain = 0
KWE2 240059Z 21009KT 19/M06 A2997 RMK A01 T01881064  RH  017%=      5-min Rain = 0
KWE2 240100Z 21008KT 19/M06 A2997 RMK A01 T01861064  RH  018%=      5-min Rain = 0
KWE2 240101Z 21008KT 18/M06 A2997 RMK A01 T01841064  RH  018%=      5-min Rain = 0
KWE2 240102Z 21008KT 18/M06 A2997 RMK A01 T01831063  RH  018%=      5-min Rain = 0
KWE2 240103Z 21008KT 18/M06 A2997 RMK A01 T01811063  RH  018%=      5-min Rain = 0
KWE2 240104Z 21008KT 18/M06 A2997 RMK A01 T01791064  RH  019%=      5-min Rain = 0
KWE2 240105Z 21008KT 18/M06 A2997 RMK A01 T01771064  RH  019%=      5-min Rain = 0
KWE2 240106Z 21007KT 18/M06 A2997 RMK A01 T01761064  RH  019%=      5-min Rain = 0
KWE2 240107Z 21007KT 17/M06 A2997 RMK A01 T01741064  RH  019%=      5-min Rain = 0
KWE2 240108Z 21007KT 17/M06 A2997 RMK A01 T01731064  RH  019%=      5-min Rain = 0
KWE2 240109Z 21007KT 17/M07 A2997 RMK A01 T01711065  RH  019%=      5-min Rain = 0
KWE2 240110Z 21007KT 17/M07 A2997 RMK A01 T01691066  RH  019%=      5-min Rain = 0
KWE2 240111Z 22007KT 17/M07 A2997 RMK A01 T01681066  RH  020%=      5-min Rain = 0
KWE2 240112Z 22006KT 17/M07 A2997 RMK A01 T01671067  RH  020%=      5-min Rain = 0
KWE2 240113Z 21007KT 17/M06 A2997 RMK A01 T01661064  RH  020%=      5-min Rain = 0
KWE2 240114Z 21007KT 17/M06 A2997 RMK A01 T01661064  RH  020%=      5-min Rain = 0
KWE2 240115Z 21007KT 17/M07 A2997 RMK A01 T01661065  RH  020%=      5-min Rain = 0
KWE2 240116Z 22007KT 17/M07 A2997 RMK A01 T01651065  RH  020%=      5-min Rain = 0
KWE2 240117Z 22007KT 16/M07 A2997 RMK A01 T01641065  RH  020%=      5-min Rain = 0
KWE2 240118Z 22007KT 16/M07 A2997 RMK A01 T01621066  RH  020%=      5-min Rain = 0
KWE2 240119Z 22007KT 16/M07 A2997 RMK A01 T01601067  RH  020%=      5-min Rain = 0
KWE2 240120Z 22007KT 16/M07 A2997 RMK A01 T01581068  RH  020%=      5-min Rain = 0
KWE2 240121Z 22007KT 16/M07 A2997 RMK A01 T01571068  RH  021%=      5-min Rain = 0
KWE2 240122Z 22006KT 16/M07 A2997 RMK A01 T01551069  RH  021%=      5-min Rain = 0
KWE2 240123Z 22007KT 15/M07 A2997 RMK A01 T01541069  RH  021%=      5-min Rain = 0
KWE2 240124Z 22007KT 15/M07 A2997 RMK A01 T01531069  RH  021%=      5-min Rain = 0
KWE2 240125Z 22007KT 15/M07 A2998 RMK A01 T01521067  RH  022%=      5-min Rain = 0
KWE2 240126Z 22007KT 15/M07 A2998 RMK A01 T01521066  RH  022%=      5-min Rain = 0
KWE2 240127Z 22007KT 15/M07 A2998 RMK A01 T01531067  RH  021%=      5-min Rain = 0
KWE2 240128Z 22007KT 15/M07 A2998 RMK A01 T01511068  RH  021%=      5-min Rain = 0
KWE2 240129Z 22007KT 15/M07 A2998 RMK A01 T01501069  RH  022%=      5-min Rain = 0
KWE2 240130Z 21007KT 15/M07 A2998 RMK A01 T01481069  RH  022%=      5-min Rain = 0
KWE2 240131Z 21007KT 15/M07 A2998 RMK A01 T01461070  RH  022%=      5-min Rain = 0
KWE2 240132Z 21007KT 15/M07 A2998 RMK A01 T01451070  RH  022%=      5-min Rain = 0
KWE2 240133Z 21007KT 14/M07 A2998 RMK A01 T01431071  RH  022%=      5-min Rain = 0
KWE2 240134Z 21007KT 14/M07 A2998 RMK A01 T01411072  RH  022%=      5-min Rain = 0
KWE2 240135Z 21007KT 14/M07 A2998 RMK A01 T01401071  RH  022%=      5-min Rain = 0
KWE2 240136Z 20008KT 14/M07 A2998 RMK A01 T01391072  RH  022%=      5-min Rain = 0
KWE2 240137Z 20008KT 14/M07 A2998 RMK A01 T01381071  RH  023%=      5-min Rain = 0
KWE2 240138Z 21008KT 14/M07 A2998 RMK A01 T01371071  RH  023%=      5-min Rain = 0
KWE2 240139Z 21008KT 14/M07 A2998 RMK A01 T01361071  RH  023%=      5-min Rain = 0
KWE2 240140Z 21008KT 14/M07 A2998 RMK A01 T01351071  RH  023%=      5-min Rain = 0
KWE2 240141Z 21008KT 13/M07 A2998 RMK A01 T01341071  RH  023%=      5-min Rain = 0
KWE2 240142Z 21008KT 13/M07 A2999 RMK A01 T01341071  RH  023%=      5-min Rain = 0
KWE2 240143Z 21008KT 13/M07 A2999 RMK A01 T01341071  RH  023%=      5-min Rain = 0
KWE2 240144Z 21008KT 13/M07 A2999 RMK A01 T01341070  RH  023%=      5-min Rain = 0
KWE2 240145Z 21008KT 13/M07 A2999 RMK A01 T01331071  RH  024%=      5-min Rain = 0
KWE2 240146Z 21008KT 13/M07 A2999 RMK A01 T01331070  RH  024%=      5-min Rain = 0
KWE2 240147Z 21008KT 13/M07 A2999 RMK A01 T01321071  RH  024%=      5-min Rain = 0
KWE2 240148Z 21008KT 13/M07 A2999 RMK A01 T01311071  RH  024%=      5-min Rain = 0
KWE2 240149Z 22008KT 13/M07 A2999 RMK A01 T01301071  RH  024%=      5-min Rain = 0
KWE2 240150Z 22008KT 13/M07 A2999 RMK A01 T01291069  RH  024%=      5-min Rain = 0
KWE2 240151Z 22008KT 13/M07 A2999 RMK A01 T01301067  RH  025%=      5-min Rain = 0
KWE2 240152Z 22007KT 13/M07 A2999 RMK A01 T01291070  RH  024%=      5-min Rain = 0
KWE2 240153Z 22007KT 13/M07 A2999 RMK A01 T01281071  RH  024%=      5-min Rain = 0
KWE2 240154Z 22007KT 13/M07 A2999 RMK A01 T01261068  RH  025%=      5-min Rain = 0
KWE2 240155Z 22007KT 13/M07 A2999 RMK A01 T01261065  RH  026%=      5-min Rain = 0
KWE2 240156Z 22006KT 13/M07 A2999 RMK A01 T01251066  RH  026%=      5-min Rain = 0
KWE2 240157Z 22006KT 12/M07 A2999 RMK A01 T01231067  RH  026%=      5-min Rain = 0
KWE2 240158Z 22007KT 12/M07 A2999 RMK A01 T01221067  RH  026%=      5-min Rain = 0
KWE2 240159Z 22007KT 12/M07 A30 RMK A01 T01221067  RH  026%=      5-min Rain = 0
KWE2 240200Z 22008KT 12/M07 A30 RMK A01 T01211067  RH  026%=      5-min Rain = 0
KWE2 240201Z 22008KT 12/M07 A30 RMK A01 T01221067  RH  026%=      5-min Rain = 0
KWE2 240202Z 22007KT 12/M07 A30 RMK A01 T01221068  RH  026%=      5-min Rain = 0
KWE2 240203Z 22008KT 12/M07 A30 RMK A01 T01201069  RH  026%=      5-min Rain = 0
KWE2 240204Z 22007KT 12/M07 A30 RMK A01 T01201068  RH  026%=      5-min Rain = 0
KWE2 240205Z 22007KT 12/M07 A30 RMK A01 T01191069  RH  026%=      5-min Rain = 0
KWE2 240206Z 23007KT 12/M07 A30 RMK A01 T01181069  RH  026%=      5-min Rain = 0
KWE2 240207Z 23007KT 12/M07 A30 RMK A01 T01161070  RH  026%=      5-min Rain = 0
KWE2 240208Z 23006KT 11/M07 A30 RMK A01 T01141067  RH  027%=      5-min Rain = 0
KWE2 240209Z 23006KT 11/M06 A30 RMK A01 T01131063  RH  028%=      5-min Rain = 0
KWE2 240210Z 23006KT 11/M06 A30 RMK A01 T01121062  RH  029%=      5-min Rain = 0
KWE2 240211Z 22007KT 11/M06 A30 RMK A01 T01111062  RH  029%=      5-min Rain = 0
KWE2 240212Z 22007KT 11/M06 A30 RMK A01 T01101064  RH  029%=      5-min Rain = 0
KWE2 240213Z 22007KT 11/M07 A30 RMK A01 T01101066  RH  029%=      5-min Rain = 0
KWE2 240214Z 22007KT 11/M06 A30 RMK A01 T01131061  RH  029%=      5-min Rain = 0
KWE2 240215Z 22007KT 12/M06 A30 RMK A01 T01161061  RH  029%=      5-min Rain = 0
KWE2 240216Z 23007KT 12/M06 A30 RMK A01 T01161063  RH  028%=      5-min Rain = 0
KWE2 240217Z 23006KT 12/M06 A30 RMK A01 T01161062  RH  028%=      5-min Rain = 0
KWE2 240218Z 23005KT 12/M06 A30 RMK A01 T01161055  RH  030%=      5-min Rain = 0
KWE2 240219Z 23005KT 12/M05 A30 RMK A01 T01151052  RH  031%=      5-min Rain = 0
KWE2 240220Z 24003KT 11/M05 A30 RMK A01 T01121048  RH  032%=      5-min Rain = 0
KWE2 240221Z 26002KT 11/M05 A30 RMK A01 T01101045  RH  033%=      5-min Rain = 0
KWE2 240222Z 26001KT 11/M04 A30 RMK A01 T01091043  RH  034%=      5-min Rain = 0
KWE2 240223Z 24003KT 11/M04 A30 RMK A01 T01101044  RH  034%=      5-min Rain = 0
KWE2 240224Z 23004KT 11/M05 A30 RMK A01 T01111045  RH  033%=      5-min Rain = 0
KWE2 240225Z 23004KT 11/M05 A30 RMK A01 T01121046  RH  033%=      5-min Rain = 0
KWE2 240226Z 22005KT 11/M05 A30 RMK A01 T01131047  RH  032%=      5-min Rain = 0
KWE2 240227Z 22005KT 11/M05 A3001 RMK A01 T01141047  RH  032%=      5-min Rain = 0
KWE2 240228Z 23005KT 11/M05 A3001 RMK A01 T01141048  RH  032%=      5-min Rain = 0
KWE2 240229Z 22005KT 12/M05 A3001 RMK A01 T01161047  RH  032%=      5-min Rain = 0
KWE2 240230Z 21005KT 12/M05 A3001 RMK A01 T01161046  RH  032%=      5-min Rain = 0
KWE2 240231Z 22006KT 12/M05 A3001 RMK A01 T01161050  RH  031%=      5-min Rain = 0
KWE2 240232Z 22005KT 12/M06 A3001 RMK A01 T01171055  RH  030%=      5-min Rain = 0
KWE2 240233Z 22006KT 12/M06 A3001 RMK A01 T01161060  RH  029%=      5-min Rain = 0
KWE2 240234Z 22006KT 12/M06 A3001 RMK A01 T01151060  RH  029%=      5-min Rain = 0
KWE2 240235Z 22006KT 12/M06 A3001 RMK A01 T01161059  RH  029%=      5-min Rain = 0
KWE2 240236Z 22005KT 12/M06 A3001 RMK A01 T01161060  RH  029%=      5-min Rain = 0
KWE2 240237Z 22006KT 12/M06 A3001 RMK A01 T01161061  RH  028%=      5-min Rain = 0
KWE2 240238Z 22005KT 12/M06 A3001 RMK A01 T01161061  RH  028%=      5-min Rain = 0
KWE2 240239Z 21005KT 12/M06 A3001 RMK A01 T01171060  RH  028%=      5-min Rain = 0
KWE2 240240Z 21005KT 12/M06 A3001 RMK A01 T01171061  RH  028%=      5-min Rain = 0
KWE2 240241Z 22005KT 12/M06 A3001 RMK A01 T01161061  RH  028%=      5-min Rain = 0
KWE2 240242Z 22005KT 11/M06 A3001 RMK A01 T01131062  RH  029%=      5-min Rain = 0
KWE2 240243Z 22005KT 11/M06 A3001 RMK A01 T01131059  RH  030%=      5-min Rain = 0
KWE2 240244Z 22005KT 11/M06 A3002 RMK A01 T01131057  RH  030%=      5-min Rain = 0
KWE2 240245Z 22004KT 11/M06 A3002 RMK A01 T01121055  RH  030%=      5-min Rain = 0
KWE2 240246Z 23004KT 11/M06 A3002 RMK A01 T01111056  RH  031%=      5-min Rain = 0
KWE2 240247Z 24004KT 11/M06 A3002 RMK A01 T01101057  RH  030%=      5-min Rain = 0
KWE2 240248Z 25003KT 11/M05 A3002 RMK A01 T01081053  RH  032%=      5-min Rain = 0
KWE2 240249Z 29002KT 10/M05 A3002 RMK A01 T01041051  RH  033%=      5-min Rain = 0
KWE2 240250Z 30002KT 10/M05 A3002 RMK A01 T01011047  RH  035%=      5-min Rain = 0
KWE2 240251Z 29002KT 10/M05 A3002 RMK A01 T01011046  RH  035%=      5-min Rain = 0
KWE2 240252Z 26002KT 10/M04 A3002 RMK A01 T01021040  RH  037%=      5-min Rain = 0
KWE2 240253Z 24003KT 10/M04 A3002 RMK A01 T01031043  RH  035%=      5-min Rain = 0
KWE2 240254Z 23003KT 11/M05 A3002 RMK A01 T01051045  RH  034%=      5-min Rain = 0
KWE2 240255Z 22003KT 11/M04 A3002 RMK A01 T01061041  RH  035%=      5-min Rain = 0
KWE2 240256Z 22003KT 11/M04 A3002 RMK A01 T01061044  RH  034%=      5-min Rain = 0
KWE2 240257Z 22002KT 11/M05 A3002 RMK A01 T01061046  RH  034%=      5-min Rain = 0
KWE2 240258Z 22003KT 11/M04 A3002 RMK A01 T01061044  RH  034%=      5-min Rain = 0
KWE2 240259Z 22003KT 11/M04 A3002 RMK A01 T01061042  RH  035%=      5-min Rain = 0
KWE2 240300Z 23002KT 11/M04 A3002 RMK A01 T01051043  RH  035%=      5-min Rain = 0
KWE2 240301Z 23002KT 10/M04 A3002 RMK A01 T01041044  RH  035%=      5-min Rain = 0
KWE2 240302Z 23002KT 10/M04 A3002 RMK A01 T01031044  RH  035%=      5-min Rain = 0
KWE2 240303Z 23002KT 10/M05 A3002 RMK A01 T01031045  RH  035%=      5-min Rain = 0
KWE2 240304Z 23002KT 10/M05 A3002 RMK A01 T01021047  RH  035%=      5-min Rain = 0
KWE2 240305Z 23002KT 10/M05 A3002 RMK A01 T01011048  RH  035%=      5-min Rain = 0
KWE2 240306Z 23002KT 10/M05 A3002 RMK A01 T01001048  RH  035%=      5-min Rain = 0
KWE2 240307Z 22002KT 10/M05 A3002 RMK A01 T01001047  RH  035%=      5-min Rain = 0
KWE2 240308Z 21003KT 10/M05 A3002 RMK A01 T01001047  RH  035%=      5-min Rain = 0
KWE2 240309Z 21004KT 10/M05 A3002 RMK A01 T01011048  RH  035%=      5-min Rain = 0
KWE2 240310Z 21003KT 10/M05 A3002 RMK A01 T01021049  RH  034%=      5-min Rain = 0
KWE2 240311Z 20004KT 10/M05 A3002 RMK A01 T01031050  RH  034%=      5-min Rain = 0
KWE2 240312Z 20004KT 10/M05 A3002 RMK A01 T01041051  RH  033%=      5-min Rain = 0
KWE2 240313Z 20004KT 11/M05 A3002 RMK A01 T01051051  RH  033%=      5-min Rain = 0
KWE2 240314Z 20004KT 11/M05 A3002 RMK A01 T01061051  RH  033%=      5-min Rain = 0
KWE2 240315Z 20004KT 11/M05 A3002 RMK A01 T01071051  RH  033%=      5-min Rain = 0
KWE2 240316Z 20004KT 11/M05 A3002 RMK A01 T01071050  RH  033%=      5-min Rain = 0
KWE2 240317Z 20005KT 11/M05 A3002 RMK A01 T01081051  RH  032%=      5-min Rain = 0
KWE2 240318Z 20005KT 11/M05 A3002 RMK A01 T01071053  RH  032%=      5-min Rain = 0
KWE2 240319Z 20005KT 11/M05 A3002 RMK A01 T01071054  RH  032%=      5-min Rain = 0
KWE2 240320Z 20005KT 10/M06 A3002 RMK A01 T01041057  RH  032%=      5-min Rain = 0
KWE2 240321Z 20005KT 10/M06 A3002 RMK A01 T01011057  RH  032%=      5-min Rain = 0
KWE2 240322Z 20005KT 10/M06 A3002 RMK A01 T00971059  RH  033%=      5-min Rain = 0
KWE2 240323Z 20005KT 10/M06 A3002 RMK A01 T00951057  RH  034%=      5-min Rain = 0
KWE2 240324Z 20006KT 10/M06 A3002 RMK A01 T00951056  RH  034%=      5-min Rain = 0
KWE2 240325Z 19006KT 10/M06 A3002 RMK A01 T00971056  RH  033%=      5-min Rain = 0
KWE2 240326Z 19007KT 10/M06 A3002 RMK A01 T01001055  RH  033%=      5-min Rain = 0
KWE2 240327Z 19007KT 10/M05 A3002 RMK A01 T01031054  RH  033%=      5-min Rain = 0
KWE2 240328Z 19007KT 11/M05 A3002 RMK A01 T01061054  RH  032%=      5-min Rain = 0
KWE2 240329Z 19007KT 11/M06 A3002 RMK A01 T01071055  RH  032%=      5-min Rain = 0
KWE2 240330Z 19007KT 11/M06 A3002 RMK A01 T01061055  RH  032%=      5-min Rain = 0
KWE2 240331Z 19008KT 11/M06 A3002 RMK A01 T01071056  RH  032%=      5-min Rain = 0
KWE2 240332Z 19008KT 11/M06 A3002 RMK A01 T01071056  RH  032%=      5-min Rain = 0
KWE2 240333Z 19008KT 11/M06 A3002 RMK A01 T01061055  RH  032%=      5-min Rain = 0
KWE2 240334Z 19008KT 11/M06 A3002 RMK A01 T01071055  RH  032%=      5-min Rain = 0
KWE2 240335Z 19008KT 11/M06 A3002 RMK A01 T01071056  RH  031%=      5-min Rain = 0
KWE2 240336Z 19008KT 11/M06 A3002 RMK A01 T01061057  RH  031%=      5-min Rain = 0
KWE2 240337Z 19008KT 11/M06 A3002 RMK A01 T01051057  RH  031%=      5-min Rain = 0
KWE2 240338Z 19008KT 11/M06 A3002 RMK A01 T01051057  RH  032%=      5-min Rain = 0
KWE2 240339Z 19008KT 11/M06 A3002 RMK A01 T01051056  RH  032%=      5-min Rain = 0
KWE2 240340Z 19008KT 11/M06 A3002 RMK A01 T01061055  RH  032%=      5-min Rain = 0
KWE2 240341Z 19008KT 11/M05 A3002 RMK A01 T01081054  RH  031%=      5-min Rain = 0
KWE2 240342Z 19008KT 11/M06 A3002 RMK A01 T01091055  RH  031%=      5-min Rain = 0
KWE2 240343Z 19008KT 11/M06 A3002 RMK A01 T01101055  RH  031%=      5-min Rain = 0
KWE2 240344Z 19008KT 11/M06 A3002 RMK A01 T01101055  RH  031%=      5-min Rain = 0
KWE2 240345Z 19008KT 11/M06 A3002 RMK A01 T01101055  RH  031%=      5-min Rain = 0
KWE2 240346Z 19008KT 11/M06 A3002 RMK A01 T01091056  RH  031%=      5-min Rain = 0
KWE2 240347Z 19008KT 11/M06 A3002 RMK A01 T01091056  RH  031%=      5-min Rain = 0
KWE2 240348Z 19008KT 11/M06 A3002 RMK A01 T01091056  RH  031%=      5-min Rain = 0
KWE2 240349Z 18008KT 11/M06 A3002 RMK A01 T01081057  RH  031%=      5-min Rain = 0
KWE2 240350Z 18007KT 11/M06 A3002 RMK A01 T01071057  RH  031%=      5-min Rain = 0
KWE2 240351Z 18007KT 11/M06 A3002 RMK A01 T01061057  RH  031%=      5-min Rain = 0
KWE2 240352Z 18007KT 11/M06 A3003 RMK A01 T01051057  RH  032%=      5-min Rain = 0
KWE2 240353Z 18008KT 10/M06 A3003 RMK A01 T01041056  RH  032%=      5-min Rain = 0
KWE2 240354Z 19008KT 11/M05 A3003 RMK A01 T01051054  RH  032%=      5-min Rain = 0
KWE2 240355Z 19007KT 11/M05 A3003 RMK A01 T01061054  RH  032%=      5-min Rain = 0
KWE2 240356Z 19007KT 10/M06 A3003 RMK A01 T01041058  RH  031%=      5-min Rain = 0
KWE2 240357Z 19007KT 10/M06 A3003 RMK A01 T01001061  RH  031%=      5-min Rain = 0
KWE2 240358Z 19007KT 10/M06 A3003 RMK A01 T00961060  RH  033%=      5-min Rain = 0
KWE2 240359Z 19007KT 10/M06 A3003 RMK A01 T00961058  RH  033%=      5-min Rain = 0
KWE2 240400Z 19007KT 10/M06 A3003 RMK A01 T00971059  RH  033%=      5-min Rain = 0
KWE2 240401Z 19007KT 10/M06 A3003 RMK A01 T00971058  RH  033%=      5-min Rain = 0
KWE2 240402Z 18006KT 10/M06 A3003 RMK A01 T00971056  RH  034%=      5-min Rain = 0
KWE2 240403Z 19007KT 10/M06 A3003 RMK A01 T00991056  RH  033%=      5-min Rain = 0
KWE2 240404Z 19007KT 10/M06 A3003 RMK A01 T00971058  RH  033%=      5-min Rain = 0
KWE2 240405Z 19007KT 10/M06 A3003 RMK A01 T00971056  RH  034%=      5-min Rain = 0
KWE2 240406Z 19006KT 10/M06 A3003 RMK A01 T00971055  RH  034%=      5-min Rain = 0
KWE2 240407Z 19006KT 10/M06 A3003 RMK A01 T00971055  RH  034%=      5-min Rain = 0
KWE2 240408Z 19007KT 10/M05 A3003 RMK A01 T00981054  RH  034%=      5-min Rain = 0
KWE2 240409Z 19007KT 10/M05 A3002 RMK A01 T00991052  RH  034%=      5-min Rain = 0
KWE2 240410Z 19007KT 10/M05 A3002 RMK A01 T01001052  RH  034%=      5-min Rain = 0
KWE2 240411Z 19008KT 10/M05 A3002 RMK A01 T01011053  RH  034%=      5-min Rain = 0
KWE2 240412Z 19007KT 10/M05 A3002 RMK A01 T00991054  RH  033%=      5-min Rain = 0
KWE2 240413Z 19007KT 10/M06 A3002 RMK A01 T00971056  RH  034%=      5-min Rain = 0
KWE2 240414Z 19007KT 10/M06 A3002 RMK A01 T00951055  RH  034%=      5-min Rain = 0
KWE2 240415Z 19008KT 10/M05 A3002 RMK A01 T00951052  RH  035%=      5-min Rain = 0
KWE2 240416Z 19008KT 10/M05 A3002 RMK A01 T00961052  RH  035%=      5-min Rain = 0
KWE2 240417Z 19008KT 10/M05 A3002 RMK A01 T00971051  RH  035%=      5-min Rain = 0
KWE2 240418Z 19008KT 10/M05 A3002 RMK A01 T00981051  RH  035%=      5-min Rain = 0
KWE2 240419Z 19008KT 10/M05 A3002 RMK A01 T00991050  RH  034%=      5-min Rain = 0
KWE2 240420Z 18007KT 10/M05 A3002 RMK A01 T01001050  RH  034%=      5-min Rain = 0
KWE2 240421Z 18008KT 10/M05 A3002 RMK A01 T01011049  RH  034%=      5-min Rain = 0
KWE2 240422Z 18009KT 10/M05 A3002 RMK A01 T01001052  RH  034%=      5-min Rain = 0
KWE2 240423Z 19009KT 10/M05 A3002 RMK A01 T00991050  RH  034%=      5-min Rain = 0
KWE2 240424Z 19009KT 10/M05 A3002 RMK A01 T01001050  RH  034%=      5-min Rain = 0
KWE2 240425Z 19009KT 10/M05 A3002 RMK A01 T01001050  RH  034%=      5-min Rain = 0
KWE2 240426Z 19008KT 10/M05 A3002 RMK A01 T00991050  RH  035%=      5-min Rain = 0
KWE2 240427Z 18008KT 10/M05 A3002 RMK A01 T01001051  RH  034%=      5-min Rain = 0
KWE2 240428Z 18009KT 10/M05 A3002 RMK A01 T01001051  RH  034%=      5-min Rain = 0
KWE2 240429Z 18009KT 10/M05 A3002 RMK A01 T00981053  RH  034%=      5-min Rain = 0
KWE2 240430Z 18008KT 10/M05 A3002 RMK A01 T00961053  RH  034%=      5-min Rain = 0
KWE2 240431Z 18008KT 10/M05 A3002 RMK A01 T00951054  RH  034%=      5-min Rain = 0
KWE2 240432Z 18008KT 09/M06 A3002 RMK A01 T00941055  RH  034%=      5-min Rain = 0
KWE2 240433Z 18008KT 09/M05 A3002 RMK A01 T00941054  RH  035%=      5-min Rain = 0
KWE2 240434Z 18007KT 09/M05 A3002 RMK A01 T00941054  RH  035%=      5-min Rain = 0
KWE2 240435Z 18007KT 10/M05 A3002 RMK A01 T00951054  RH  034%=      5-min Rain = 0
KWE2 240436Z 18008KT 10/M05 A3002 RMK A01 T00961054  RH  034%=      5-min Rain = 0
KWE2 240437Z 18008KT 10/M05 A3002 RMK A01 T00971053  RH  034%=      5-min Rain = 0
KWE2 240438Z 18008KT 10/M05 A3002 RMK A01 T00981052  RH  034%=      5-min Rain = 0
KWE2 240439Z 18008KT 10/M05 A3002 RMK A01 T00971054  RH  034%=      5-min Rain = 0
KWE2 240440Z 19008KT 10/M05 A3002 RMK A01 T00951054  RH  034%=      5-min Rain = 0
KWE2 240441Z 19008KT 09/M05 A3002 RMK A01 T00941053  RH  035%=      5-min Rain = 0
KWE2 240442Z 19008KT 10/M05 A3002 RMK A01 T00951053  RH  035%=      5-min Rain = 0
KWE2 240443Z 19007KT 10/M05 A3002 RMK A01 T00971052  RH  035%=      5-min Rain = 0
KWE2 240444Z 19007KT 10/M05 A3002 RMK A01 T00981053  RH  034%=      5-min Rain = 0
KWE2 240445Z 19008KT 10/M05 A3002 RMK A01 T00971054  RH  034%=      5-min Rain = 0
KWE2 240446Z 18007KT 10/M05 A3002 RMK A01 T00961054  RH  034%=      5-min Rain = 0
KWE2 240447Z 18007KT 09/M05 A3002 RMK A01 T00941053  RH  035%=      5-min Rain = 0
KWE2 240448Z 18007KT 09/M05 A3002 RMK A01 T00931053  RH  035%=      5-min Rain = 0
KWE2 240449Z 18007KT 09/M05 A3002 RMK A01 T00931052  RH  035%=      5-min Rain = 0
KWE2 240450Z 18007KT 09/M05 A3002 RMK A01 T00931053  RH  035%=      5-min Rain = 0
KWE2 240451Z 18007KT 09/M05 A3002 RMK A01 T00931053  RH  035%=      5-min Rain = 0
KWE2 240452Z 18008KT 09/M05 A3002 RMK A01 T00931053  RH  035%=      5-min Rain = 0
KWE2 240453Z 18008KT 09/M05 A3002 RMK A01 T00921054  RH  035%=      5-min Rain = 0
KWE2 240454Z 19008KT 09/M05 A3002 RMK A01 T00911053  RH  036%=      5-min Rain = 0
KWE2 240455Z 19008KT 09/M05 A3002 RMK A01 T00911053  RH  036%=      5-min Rain = 0
KWE2 240456Z 19008KT 09/M05 A3002 RMK A01 T00911052  RH  036%=      5-min Rain = 0
KWE2 240457Z 19008KT 09/M05 A3002 RMK A01 T00921050  RH  036%=      5-min Rain = 0
KWE2 240458Z 19008KT 09/M05 A3002 RMK A01 T00911051  RH  036%=      5-min Rain = 0
KWE2 240459Z 19008KT 09/M05 A3002 RMK A01 T00911050  RH  037%=      5-min Rain = 0

Page generated in 0.1466 seconds.